Observation data for Stinnett on 07/04/2020      Previous  Date  Next       Current Mesonet Observations  Soil Data  Daily Summary Page  Observations in Plain Language
KST3 040500Z 01010KT 25/13 A3014 RMK A01 T02470130  RH  048%=      5-min Rain = 0
KST3 040501Z 01011KT 25/13 A3014 RMK A01 T02460130  RH  048%=      5-min Rain = 0
KST3 040502Z 01011KT 25/13 A3014 RMK A01 T02460130  RH  048%=      5-min Rain = 0
KST3 040503Z 01011KT 25/13 A3014 RMK A01 T02470131  RH  048%=      5-min Rain = 0
KST3 040504Z 01010KT 25/13 A3014 RMK A01 T02470131  RH  048%=      5-min Rain = 0
KST3 040505Z 01009KT 25/13 A3014 RMK A01 T02470131  RH  048%=      5-min Rain = 0
KST3 040506Z 01009KT 25/13 A3014 RMK A01 T02460130  RH  049%=      5-min Rain = 0
KST3 040507Z 01009KT 25/13 A3014 RMK A01 T02460131  RH  049%=      5-min Rain = 0
KST3 040508Z 01009KT 25/13 A3014 RMK A01 T02460131  RH  049%=      5-min Rain = 0
KST3 040509Z 01009KT 25/13 A3014 RMK A01 T02460131  RH  049%=      5-min Rain = 0
KST3 040510Z 01008KT 25/13 A3014 RMK A01 T02460131  RH  049%=      5-min Rain = 0
KST3 040511Z 01007KT 25/13 A3014 RMK A01 T02460131  RH  049%=      5-min Rain = 0
KST3 040512Z 01008KT 25/13 A3014 RMK A01 T02460131  RH  049%=      5-min Rain = 0
KST3 040513Z 01008KT 25/13 A3014 RMK A01 T02450131  RH  049%=      5-min Rain = 0
KST3 040514Z 01008KT 25/13 A3014 RMK A01 T02460131  RH  049%=      5-min Rain = 0
KST3 040515Z 01009KT 25/13 A3014 RMK A01 T02460131  RH  049%=      5-min Rain = 0
KST3 040516Z 01008KT 25/13 A3014 RMK A01 T02460130  RH  049%=      5-min Rain = 0
KST3 040517Z 01008KT 25/13 A3014 RMK A01 T02460131  RH  049%=      5-min Rain = 0
KST3 040518Z 01009KT 25/13 A3014 RMK A01 T02460131  RH  049%=      5-min Rain = 0
KST3 040519Z 02010KT 25/13 A3014 RMK A01 T02460131  RH  049%=      5-min Rain = 0
KST3 040520Z 01009KT 25/13 A3014 RMK A01 T02460131  RH  049%=      5-min Rain = 0
KST3 040521Z 02007KT 25/13 A3014 RMK A01 T02460131  RH  049%=      5-min Rain = 0
KST3 040522Z 02007KT 25/13 A3014 RMK A01 T02460131  RH  049%=      5-min Rain = 0
KST3 040523Z 02006KT 25/13 A3014 RMK A01 T02460131  RH  049%=      5-min Rain = 0
KST3 040524Z 02007KT 25/13 A3014 RMK A01 T02460131  RH  049%=      5-min Rain = 0
KST3 040525Z 02007KT 25/13 A3014 RMK A01 T02460131  RH  049%=      5-min Rain = 0
KST3 040526Z 01006KT 25/13 A3014 RMK A01 T02450130  RH  049%=      5-min Rain = 0
KST3 040527Z 01006KT 25/13 A3014 RMK A01 T02460131  RH  049%=      5-min Rain = 0
KST3 040528Z 01006KT 25/13 A3014 RMK A01 T02460131  RH  049%=      5-min Rain = 0
KST3 040529Z 01007KT 25/13 A3014 RMK A01 T02450131  RH  049%=      5-min Rain = 0
KST3 040530Z 01007KT 25/13 A3015 RMK A01 T02450131  RH  049%=      5-min Rain = 0
KST3 040531Z 01008KT 25/13 A3015 RMK A01 T02450131  RH  049%=      5-min Rain = 0
KST3 040532Z 01008KT 25/13 A3015 RMK A01 T02450131  RH  049%=      5-min Rain = 0
KST3 040533Z 01008KT 25/13 A3015 RMK A01 T02450131  RH  049%=      5-min Rain = 0
KST3 040534Z 01007KT 25/13 A3015 RMK A01 T02450131  RH  049%=      5-min Rain = 0
KST3 040535Z 01007KT 24/13 A3015 RMK A01 T02440131  RH  049%=      5-min Rain = 0
KST3 040536Z 01008KT 24/13 A3015 RMK A01 T02440132  RH  049%=      5-min Rain = 0
KST3 040537Z 01007KT 24/13 A3015 RMK A01 T02440132  RH  050%=      5-min Rain = 0
KST3 040538Z 01007KT 24/13 A3015 RMK A01 T02440132  RH  050%=      5-min Rain = 0
KST3 040539Z 02008KT 24/13 A3014 RMK A01 T02430132  RH  050%=      5-min Rain = 0
KST3 040540Z 02008KT 24/13 A3014 RMK A01 T02430132  RH  050%=      5-min Rain = 0
KST3 040541Z 02008KT 24/13 A3014 RMK A01 T02430133  RH  050%=      5-min Rain = 0
KST3 040542Z 02008KT 24/13 A3014 RMK A01 T02430133  RH  050%=      5-min Rain = 0
KST3 040543Z 02008KT 24/13 A3014 RMK A01 T02430133  RH  050%=      5-min Rain = 0
KST3 040544Z 01008KT 24/13 A3014 RMK A01 T02430133  RH  050%=      5-min Rain = 0
KST3 040545Z 02008KT 24/13 A3014 RMK A01 T02430133  RH  050%=      5-min Rain = 0
KST3 040546Z 02007KT 24/13 A3014 RMK A01 T02430133  RH  050%=      5-min Rain = 0
KST3 040547Z 01007KT 24/13 A3014 RMK A01 T02420133  RH  051%=      5-min Rain = 0
KST3 040548Z 02006KT 24/13 A3014 RMK A01 T02420133  RH  051%=      5-min Rain = 0
KST3 040549Z 02007KT 24/13 A3014 RMK A01 T02420134  RH  051%=      5-min Rain = 0
KST3 040550Z 02007KT 24/13 A3014 RMK A01 T02410134  RH  051%=      5-min Rain = 0
KST3 040551Z 02006KT 24/13 A3014 RMK A01 T02410134  RH  051%=      5-min Rain = 0
KST3 040552Z 02007KT 24/13 A3014 RMK A01 T02410134  RH  051%=      5-min Rain = 0
KST3 040553Z 02008KT 24/13 A3014 RMK A01 T02410134  RH  051%=      5-min Rain = 0
KST3 040554Z 02008KT 24/13 A3014 RMK A01 T02410134  RH  051%=      5-min Rain = 0
KST3 040555Z 02008KT 24/13 A3014 RMK A01 T02410134  RH  051%=      5-min Rain = 0
KST3 040556Z 02008KT 24/13 A3014 RMK A01 T02410134  RH  051%=      5-min Rain = 0
KST3 040557Z 02009KT 24/13 A3014 RMK A01 T02410134  RH  051%=      5-min Rain = 0
KST3 040558Z 02008KT 24/13 A3014 RMK A01 T02410134  RH  051%=      5-min Rain = 0
KST3 040559Z 02008KT 24/14 A3014 RMK A01 T02410135  RH  051%=      5-min Rain = 0
KST3 040600Z 02008KT 24/14 A3014 RMK A01 T02410135  RH  051%=      5-min Rain = 0
KST3 040601Z 02008KT 24/14 A3014 RMK A01 T02410135  RH  052%=      5-min Rain = 0
KST3 040602Z 02009KT 24/14 A3014 RMK A01 T02400135  RH  052%=      5-min Rain = 0
KST3 040603Z 02009KT 24/14 A3014 RMK A01 T02410135  RH  052%=      5-min Rain = 0
KST3 040604Z 02009KT 24/14 A3014 RMK A01 T02400135  RH  052%=      5-min Rain = 0
KST3 040605Z 02009KT 24/14 A3014 RMK A01 T02410135  RH  052%=      5-min Rain = 0
KST3 040606Z 02010KT 24/14 A3014 RMK A01 T02410136  RH  052%=      5-min Rain = 0
KST3 040607Z 02010KT 24/14 A3014 RMK A01 T02400135  RH  052%=      5-min Rain = 0
KST3 040608Z 02010KT 24/14 A3014 RMK A01 T02410136  RH  052%=      5-min Rain = 0
KST3 040609Z 02010KT 24/14 A3014 RMK A01 T02410136  RH  052%=      5-min Rain = 0
KST3 040610Z 02010KT 24/14 A3014 RMK A01 T02400135  RH  052%=      5-min Rain = 0
KST3 040611Z 02011KT 24/14 A3014 RMK A01 T02410135  RH  052%=      5-min Rain = 0
KST3 040612Z 02010KT 24/14 A3014 RMK A01 T02410135  RH  052%=      5-min Rain = 0
KST3 040613Z 02010KT 24/14 A3014 RMK A01 T02400135  RH  052%=      5-min Rain = 0
KST3 040614Z 02009KT 24/14 A3014 RMK A01 T02400135  RH  052%=      5-min Rain = 0
KST3 040615Z 02009KT 24/14 A3014 RMK A01 T02400135  RH  052%=      5-min Rain = 0
KST3 040616Z 03008KT 24/14 A3014 RMK A01 T02400135  RH  052%=      5-min Rain = 0
KST3 040617Z 03009KT 24/14 A3014 RMK A01 T02400135  RH  052%=      5-min Rain = 0
KST3 040618Z 03007KT 24/14 A3014 RMK A01 T02400135  RH  052%=      5-min Rain = 0
KST3 040619Z 03008KT 24/14 A3014 RMK A01 T02400135  RH  052%=      5-min Rain = 0
KST3 040620Z 03009KT 24/14 A3014 RMK A01 T02400135  RH  052%=      5-min Rain = 0
KST3 040621Z 02009KT 24/13 A3014 RMK A01 T02400134  RH  052%=      5-min Rain = 0
KST3 040622Z 02009KT 24/13 A3014 RMK A01 T02400134  RH  052%=      5-min Rain = 0
KST3 040623Z 01011KT 24/13 A3014 RMK A01 T02400134  RH  051%=      5-min Rain = 0
KST3 040624Z 01010KT 24/13 A3014 RMK A01 T02400134  RH  051%=      5-min Rain = 0
KST3 040625Z 01010KT 24/13 A3014 RMK A01 T02400134  RH  051%=      5-min Rain = 0
KST3 040626Z 01010KT 24/13 A3014 RMK A01 T02400134  RH  051%=      5-min Rain = 0
KST3 040627Z 01010KT 24/13 A3014 RMK A01 T02400134  RH  051%=      5-min Rain = 0
KST3 040628Z 01010KT 24/13 A3014 RMK A01 T02400134  RH  052%=      5-min Rain = 0
KST3 040629Z 01011KT 24/13 A3014 RMK A01 T02400134  RH  051%=      5-min Rain = 0
KST3 040630Z 01011KT 24/13 A3014 RMK A01 T02400134  RH  051%=      5-min Rain = 0
KST3 040631Z 02012KT 24/13 A3014 RMK A01 T02400133  RH  051%=      5-min Rain = 0
KST3 040632Z 02011KT 24/13 A3014 RMK A01 T02400133  RH  051%=      5-min Rain = 0
KST3 040633Z 02011KT 24/13 A3014 RMK A01 T02410132  RH  051%=      5-min Rain = 0
KST3 040634Z 02011KT 24/13 A3014 RMK A01 T02410132  RH  050%=      5-min Rain = 0
KST3 040635Z 03011KT 24/13 A3014 RMK A01 T02420132  RH  050%=      5-min Rain = 0
KST3 040636Z 02013KT 24/13 A3014 RMK A01 T02420132  RH  050%=      5-min Rain = 0
KST3 040637Z 02012KT 24/13 A3014 RMK A01 T02430132  RH  050%=      5-min Rain = 0
KST3 040638Z 02011KT 24/13 A3014 RMK A01 T02430132  RH  050%=      5-min Rain = 0
KST3 040639Z 03010KT 24/13 A3014 RMK A01 T02430131  RH  050%=      5-min Rain = 0
KST3 040640Z 02011KT 24/13 A3014 RMK A01 T02430131  RH  049%=      5-min Rain = 0
KST3 040641Z 03010KT 24/13 A3014 RMK A01 T02440131  RH  049%=      5-min Rain = 0
KST3 040642Z 02011KT 24/13 A3014 RMK A01 T02440131  RH  049%=      5-min Rain = 0
KST3 040643Z 02012KT 24/13 A3014 RMK A01 T02440131  RH  049%=      5-min Rain = 0
KST3 040644Z 02011KT 24/13 A3014 RMK A01 T02440131  RH  049%=      5-min Rain = 0
KST3 040645Z 02012KT 24/13 A3014 RMK A01 T02440131  RH  049%=      5-min Rain = 0
KST3 040646Z 02011KT 24/13 A3014 RMK A01 T02440131  RH  049%=      5-min Rain = 0
KST3 040647Z 02013KT 24/13 A3014 RMK A01 T02440131  RH  049%=      5-min Rain = 0
KST3 040648Z 02011KT 25/13 A3014 RMK A01 T02450131  RH  049%=      5-min Rain = 0
KST3 040649Z 02011KT 25/13 A3014 RMK A01 T02450132  RH  049%=      5-min Rain = 0
KST3 040650Z 02011KT 24/13 A3014 RMK A01 T02440132  RH  049%=      5-min Rain = 0
KST3 040651Z 02010KT 24/13 A3014 RMK A01 T02440132  RH  050%=      5-min Rain = 0
KST3 040652Z 02009KT 24/13 A3014 RMK A01 T02440132  RH  050%=      5-min Rain = 0
KST3 040653Z 02009KT 24/13 A3015 RMK A01 T02440132  RH  050%=      5-min Rain = 0
KST3 040654Z 02010KT 24/13 A3015 RMK A01 T02430132  RH  050%=      5-min Rain = 0
KST3 040655Z 03010G15KT 24/13 A3015 RMK A01 T02430133  RH  050%=      5-min Rain = 0
KST3 040656Z 03010KT 24/13 A3015 RMK A01 T02430132  RH  050%=      5-min Rain = 0
KST3 040657Z 03012KT 24/13 A3015 RMK A01 T02440132  RH  050%=      5-min Rain = 0
KST3 040658Z 02013KT 24/13 A3015 RMK A01 T02440132  RH  050%=      5-min Rain = 0
KST3 040659Z 02013KT 24/13 A3015 RMK A01 T02440132  RH  050%=      5-min Rain = 0
KST3 040700Z 02013KT 25/13 A3015 RMK A01 T02450132  RH  050%=      5-min Rain = 0
KST3 040701Z 03012KT 25/13 A3015 RMK A01 T02450133  RH  050%=      5-min Rain = 0
KST3 040702Z 03012KT 25/13 A3015 RMK A01 T02450133  RH  050%=      5-min Rain = 0
KST3 040703Z 03012KT 25/13 A3015 RMK A01 T02450133  RH  050%=      5-min Rain = 0
KST3 040704Z 03011KT 24/13 A3015 RMK A01 T02440133  RH  050%=      5-min Rain = 0
KST3 040705Z 03012KT 24/13 A3014 RMK A01 T02440133  RH  050%=      5-min Rain = 0
KST3 040706Z 02012KT 24/13 A3014 RMK A01 T02440133  RH  050%=      5-min Rain = 0
KST3 040707Z 02009KT 24/13 A3014 RMK A01 T02440133  RH  050%=      5-min Rain = 0
KST3 040708Z 02012KT 24/13 A3014 RMK A01 T02430133  RH  050%=      5-min Rain = 0
KST3 040709Z 03011KT 24/13 A3014 RMK A01 T02430134  RH  050%=      5-min Rain = 0
KST3 040710Z 03010KT 24/13 A3014 RMK A01 T02430134  RH  050%=      5-min Rain = 0
KST3 040711Z 03010KT 24/13 A3014 RMK A01 T02430134  RH  051%=      5-min Rain = 0
KST3 040712Z 03012KT 24/13 A3014 RMK A01 T02430134  RH  051%=      5-min Rain = 0
KST3 040713Z 03011KT 24/13 A3014 RMK A01 T02420133  RH  050%=      5-min Rain = 0
KST3 040714Z 03010KT 24/13 A3014 RMK A01 T02430133  RH  050%=      5-min Rain = 0
KST3 040715Z 03012KT 24/13 A3014 RMK A01 T02430134  RH  050%=      5-min Rain = 0
KST3 040716Z 03012KT 24/13 A3014 RMK A01 T02430133  RH  050%=      5-min Rain = 0
KST3 040717Z 03012KT 24/13 A3014 RMK A01 T02430134  RH  050%=      5-min Rain = 0
KST3 040718Z 02012KT 24/13 A3014 RMK A01 T02430134  RH  051%=      5-min Rain = 0
KST3 040719Z 02015KT 24/13 A3014 RMK A01 T02430134  RH  051%=      5-min Rain = 0
KST3 040720Z 02016KT 24/13 A3014 RMK A01 T02420134  RH  051%=      5-min Rain = 0
KST3 040721Z 03014KT 24/14 A3015 RMK A01 T02420135  RH  051%=      5-min Rain = 0
KST3 040722Z 03014KT 24/14 A3015 RMK A01 T02420135  RH  051%=      5-min Rain = 0
KST3 040723Z 03015KT 24/14 A3015 RMK A01 T02420135  RH  051%=      5-min Rain = 0
KST3 040724Z 03014KT 24/14 A3015 RMK A01 T02420136  RH  052%=      5-min Rain = 0
KST3 040725Z 03014KT 24/14 A3015 RMK A01 T02410136  RH  052%=      5-min Rain = 0
KST3 040726Z 02014KT 24/14 A3015 RMK A01 T02420137  RH  052%=      5-min Rain = 0
KST3 040727Z 02015KT 24/14 A3015 RMK A01 T02410138  RH  052%=      5-min Rain = 0
KST3 040728Z 02018KT 24/14 A3015 RMK A01 T02410139  RH  053%=      5-min Rain = 0
KST3 040729Z 03016KT 24/14 A3015 RMK A01 T02410140  RH  053%=      5-min Rain = 0
KST3 040730Z 02017KT 24/14 A3015 RMK A01 T02410141  RH  053%=      5-min Rain = 0
KST3 040731Z 02018KT 24/14 A3015 RMK A01 T02410141  RH  054%=      5-min Rain = 0
KST3 040732Z 03017KT 24/14 A3015 RMK A01 T02400142  RH  054%=      5-min Rain = 0
KST3 040733Z 03015KT 24/14 A3015 RMK A01 T02400142  RH  054%=      5-min Rain = 0
KST3 040734Z 03015G20KT 24/14 A3015 RMK A01 T02400143  RH  055%=      5-min Rain = 0
KST3 040735Z 02019KT 24/14 A3015 RMK A01 T02390143  RH  055%=      5-min Rain = 0
KST3 040736Z 02017KT 24/14 A3015 RMK A01 T02380144  RH  055%=      5-min Rain = 0
KST3 040737Z 03016KT 24/14 A3015 RMK A01 T02380144  RH  056%=      5-min Rain = 0
KST3 040738Z 02020G25KT 24/15 A3015 RMK A01 T02380145  RH  056%=      5-min Rain = 0
KST3 040739Z 02021KT 24/15 A3015 RMK A01 T02370146  RH  057%=      5-min Rain = 0
KST3 040740Z 02018KT 24/15 A3015 RMK A01 T02360147  RH  057%=      5-min Rain = 0
KST3 040741Z 02017G22KT 24/15 A3014 RMK A01 T02350147  RH  058%=      5-min Rain = 0
KST3 040742Z 03019KT 23/15 A3014 RMK A01 T02340148  RH  058%=      5-min Rain = 0
KST3 040743Z 02020KT 23/15 A3014 RMK A01 T02330148  RH  059%=      5-min Rain = 0
KST3 040744Z 02019KT 23/15 A3014 RMK A01 T02330149  RH  059%=      5-min Rain = 0
KST3 040745Z 02017G22KT 23/15 A3014 RMK A01 T02320149  RH  059%=      5-min Rain = 0
KST3 040746Z 02020KT 23/15 A3014 RMK A01 T02320149  RH  060%=      5-min Rain = 0
KST3 040747Z 02019KT 23/15 A3014 RMK A01 T02310149  RH  060%=      5-min Rain = 0
KST3 040748Z 02019KT 23/15 A3014 RMK A01 T02310150  RH  060%=      5-min Rain = 0
KST3 040749Z 02018KT 23/15 A3014 RMK A01 T02310150  RH  060%=      5-min Rain = 0
KST3 040750Z 02018KT 23/15 A3014 RMK A01 T02300150  RH  061%=      5-min Rain = 0
KST3 040751Z 02019KT 23/15 A3014 RMK A01 T02300151  RH  061%=      5-min Rain = 0
KST3 040752Z 02016KT 23/15 A3014 RMK A01 T02300151  RH  061%=      5-min Rain = 0
KST3 040753Z 02018KT 23/15 A3014 RMK A01 T02290151  RH  061%=      5-min Rain = 0
KST3 040754Z 02016KT 23/15 A3014 RMK A01 T02290152  RH  062%=      5-min Rain = 0
KST3 040755Z 02017KT 23/15 A3014 RMK A01 T02280152  RH  062%=      5-min Rain = 0
KST3 040756Z 02016KT 23/15 A3014 RMK A01 T02280152  RH  062%=      5-min Rain = 0
KST3 040757Z 02017KT 23/15 A3014 RMK A01 T02280153  RH  062%=      5-min Rain = 0
KST3 040758Z 02017KT 23/15 A3014 RMK A01 T02270153  RH  063%=      5-min Rain = 0
KST3 040759Z 02019KT 23/15 A3014 RMK A01 T02270153  RH  063%=      5-min Rain = 0
KST3 040800Z 02018KT 23/15 A3014 RMK A01 T02270153  RH  063%=      5-min Rain = 0
KST3 040801Z 03016KT 23/15 A3014 RMK A01 T02270154  RH  063%=      5-min Rain = 0
KST3 040802Z 02014G19KT 23/15 A3014 RMK A01 T02270154  RH  064%=      5-min Rain = 0
KST3 040803Z 03017KT 23/15 A3014 RMK A01 T02260154  RH  064%=      5-min Rain = 0
KST3 040804Z 02019KT 23/15 A3014 RMK A01 T02260154  RH  064%=      5-min Rain = 0
KST3 040805Z 02016KT 23/16 A3014 RMK A01 T02260155  RH  064%=      5-min Rain = 0
KST3 040806Z 02015G21KT 23/16 A3014 RMK A01 T02260155  RH  064%=      5-min Rain = 0
KST3 040807Z 02016KT 23/16 A3014 RMK A01 T02260155  RH  064%=      5-min Rain = 0
KST3 040808Z 02016KT 23/16 A3014 RMK A01 T02260155  RH  064%=      5-min Rain = 0
KST3 040809Z 02020KT 23/16 A3014 RMK A01 T02260156  RH  064%=      5-min Rain = 0
KST3 040810Z 03018KT 23/16 A3014 RMK A01 T02260156  RH  064%=      5-min Rain = 0
KST3 040811Z 03018KT 23/16 A3014 RMK A01 T02270156  RH  064%=      5-min Rain = 0
KST3 040812Z 03016KT 23/16 A3014 RMK A01 T02260156  RH  065%=      5-min Rain = 0
KST3 040813Z 03014KT 23/16 A3014 RMK A01 T02260156  RH  065%=      5-min Rain = 0
KST3 040814Z 03013KT 23/16 A3014 RMK A01 T02260156  RH  065%=      5-min Rain = 0
KST3 040815Z 03015KT 23/16 A3014 RMK A01 T02260156  RH  065%=      5-min Rain = 0
KST3 040816Z 03015G21KT 23/16 A3014 RMK A01 T02260156  RH  065%=      5-min Rain = 0
KST3 040817Z 03013G18KT 23/16 A3014 RMK A01 T02260155  RH  064%=      5-min Rain = 0
KST3 040818Z 03012KT 23/16 A3014 RMK A01 T02260155  RH  064%=      5-min Rain = 0
KST3 040819Z 03011KT 23/16 A3013 RMK A01 T02260155  RH  064%=      5-min Rain = 0
KST3 040820Z 03013KT 23/16 A3013 RMK A01 T02270155  RH  064%=      5-min Rain = 0
KST3 040821Z 03013KT 23/16 A3013 RMK A01 T02270156  RH  064%=      5-min Rain = 0
KST3 040822Z 03013KT 23/16 A3013 RMK A01 T02260155  RH  064%=      5-min Rain = 0
KST3 040823Z 03012KT 23/16 A3013 RMK A01 T02270155  RH  064%=      5-min Rain = 0
KST3 040824Z 03012KT 23/16 A3013 RMK A01 T02260155  RH  064%=      5-min Rain = 0
KST3 040825Z 03011KT 23/16 A3013 RMK A01 T02260155  RH  064%=      5-min Rain = 0
KST3 040826Z 04012KT 23/16 A3013 RMK A01 T02270156  RH  064%=      5-min Rain = 0
KST3 040827Z 03013KT 23/16 A3013 RMK A01 T02260155  RH  064%=      5-min Rain = 0
KST3 040828Z 03013KT 23/16 A3013 RMK A01 T02260155  RH  064%=      5-min Rain = 0
KST3 040829Z 04013KT 23/16 A3013 RMK A01 T02260155  RH  064%=      5-min Rain = 0
KST3 040830Z 04011KT 23/16 A3013 RMK A01 T02260155  RH  064%=      5-min Rain = 0
KST3 040831Z 04013KT 23/16 A3014 RMK A01 T02270155  RH  064%=      5-min Rain = 0
KST3 040832Z 03010KT 23/16 A3013 RMK A01 T02260155  RH  064%=      5-min Rain = 0
KST3 040833Z 04012KT 23/16 A3014 RMK A01 T02260155  RH  064%=      5-min Rain = 0
KST3 040834Z 04012KT 23/16 A3014 RMK A01 T02260155  RH  064%=      5-min Rain = 0
KST3 040835Z 03010KT 23/16 A3014 RMK A01 T02270155  RH  064%=      5-min Rain = 0
KST3 040836Z 03012KT 23/16 A3014 RMK A01 T02260155  RH  064%=      5-min Rain = 0
KST3 040837Z 03012KT 23/16 A3014 RMK A01 T02260155  RH  064%=      5-min Rain = 0
KST3 040838Z 03012KT 23/16 A3013 RMK A01 T02260155  RH  064%=      5-min Rain = 0
KST3 040839Z 03011KT 23/16 A3013 RMK A01 T02250156  RH  065%=      5-min Rain = 0
KST3 040840Z 03009KT 23/16 A3013 RMK A01 T02250156  RH  065%=      5-min Rain = 0
KST3 040841Z 03010KT 23/16 A3013 RMK A01 T02250156  RH  065%=      5-min Rain = 0
KST3 040842Z 03012KT 23/16 A3013 RMK A01 T02250156  RH  065%=      5-min Rain = 0
KST3 040843Z 04013KT 23/16 A3013 RMK A01 T02250156  RH  065%=      5-min Rain = 0
KST3 040844Z 03010KT 23/16 A3013 RMK A01 T02250155  RH  065%=      5-min Rain = 0
KST3 040845Z 03011G16KT 23/16 A3013 RMK A01 T02250155  RH  065%=      5-min Rain = 0
KST3 040846Z 02013KT 23/16 A3013 RMK A01 T02250155  RH  065%=      5-min Rain = 0
KST3 040847Z 02014KT 23/16 A3013 RMK A01 T02250155  RH  065%=      5-min Rain = 0
KST3 040848Z 01013KT 23/16 A3014 RMK A01 T02250155  RH  065%=      5-min Rain = 0
KST3 040849Z 02013KT 23/16 A3014 RMK A01 T02250155  RH  065%=      5-min Rain = 0
KST3 040850Z 01013KT 23/16 A3014 RMK A01 T02250155  RH  065%=      5-min Rain = 0
KST3 040851Z 00011KT 23/16 A3014 RMK A01 T02250155  RH  065%=      5-min Rain = 0
KST3 040852Z 35012KT 23/16 A3014 RMK A01 T02250155  RH  065%=      5-min Rain = 0
KST3 040853Z 34012KT 23/16 A3014 RMK A01 T02250155  RH  065%=      5-min Rain = 0
KST3 040854Z 33013KT 23/16 A3014 RMK A01 T02250156  RH  065%=      5-min Rain = 0
KST3 040855Z 33015KT 23/16 A3014 RMK A01 T02250158  RH  066%=      5-min Rain = 0
KST3 040856Z 34016KT 22/16 A3015 RMK A01 T02240160  RH  067%=      5-min Rain = 0
KST3 040857Z 34014KT 22/16 A3015 RMK A01 T02230161  RH  068%=      5-min Rain = 0
KST3 040858Z 34017KT 22/16 A3015 RMK A01 T02220162  RH  069%=      5-min Rain = 0
KST3 040859Z 34018G24KT 22/16 A3015 RMK A01 T02210163  RH  070%=      5-min Rain = 0
KST3 040900Z 34018KT 22/16 A3014 RMK A01 T02200163  RH  070%=      5-min Rain = 0
KST3 040901Z 35018G23KT 22/16 A3014 RMK A01 T02180162  RH  070%=      5-min Rain = 0
KST3 040902Z 34018G24KT 22/16 A3014 RMK A01 T02180162  RH  071%=      5-min Rain = 0
KST3 040903Z 34019KT 22/16 A3014 RMK A01 T02170162  RH  071%=      5-min Rain = 0
KST3 040904Z 35015KT 22/16 A3014 RMK A01 T02170162  RH  071%=      5-min Rain = 0
KST3 040905Z 35014KT 22/16 A3014 RMK A01 T02180162  RH  071%=      5-min Rain = 0
KST3 040906Z 36014KT 22/16 A3014 RMK A01 T02180160  RH  070%=      5-min Rain = 0
KST3 040907Z 35016KT 22/16 A3014 RMK A01 T02200156  RH  067%=      5-min Rain = 0
KST3 040908Z 00015G20KT 22/16 A3014 RMK A01 T02220159  RH  068%=      5-min Rain = 0
KST3 040909Z 36014G20KT 22/16 A3014 RMK A01 T02220161  RH  068%=      5-min Rain = 0
KST3 040910Z 35017KT 22/16 A3014 RMK A01 T02210161  RH  069%=      5-min Rain = 0
KST3 040911Z 35017KT 22/16 A3013 RMK A01 T02210162  RH  069%=      5-min Rain = 0
KST3 040912Z 35014KT 22/16 A3013 RMK A01 T02200162  RH  070%=      5-min Rain = 0
KST3 040913Z 35015KT 22/16 A3013 RMK A01 T02190162  RH  070%=      5-min Rain = 0
KST3 040914Z 35017KT 22/16 A3013 RMK A01 T02180162  RH  070%=      5-min Rain = 0
KST3 040915Z 35017KT 22/16 A3013 RMK A01 T02180162  RH  070%=      5-min Rain = 0
KST3 040916Z 36018KT 22/16 A3013 RMK A01 T02180162  RH  070%=      5-min Rain = 0
KST3 040917Z 36015KT 22/16 A3013 RMK A01 T02180161  RH  070%=      5-min Rain = 0
KST3 040918Z 00017KT 22/16 A3013 RMK A01 T02180161  RH  070%=      5-min Rain = 0
KST3 040919Z 01017KT 22/16 A3013 RMK A01 T02170160  RH  070%=      5-min Rain = 0
KST3 040920Z 01018KT 22/16 A3013 RMK A01 T02180160  RH  070%=      5-min Rain = 0
KST3 040921Z 01017KT 22/16 A3013 RMK A01 T02180160  RH  070%=      5-min Rain = 0
KST3 040922Z 01017KT 22/16 A3013 RMK A01 T02180159  RH  069%=      5-min Rain = 0
KST3 040923Z 01017KT 22/16 A3012 RMK A01 T02180159  RH  069%=      5-min Rain = 0
KST3 040924Z 01015KT 22/16 A3012 RMK A01 T02180159  RH  069%=      5-min Rain = 0
KST3 040925Z 01018KT 22/16 A3013 RMK A01 T02190159  RH  069%=      5-min Rain = 0
KST3 040926Z 01019KT 22/16 A3012 RMK A01 T02190159  RH  069%=      5-min Rain = 0
KST3 040927Z 02019KT 22/16 A3012 RMK A01 T02180159  RH  069%=      5-min Rain = 0
KST3 040928Z 01020KT 22/16 A3012 RMK A01 T02190159  RH  069%=      5-min Rain = 0
KST3 040929Z 01020KT 22/16 A3012 RMK A01 T02190160  RH  069%=      5-min Rain = 0
KST3 040930Z 01017KT 22/16 A3012 RMK A01 T02190159  RH  069%=      5-min Rain = 0
KST3 040931Z 01019KT 22/16 A3012 RMK A01 T02190159  RH  069%=      5-min Rain = 0
KST3 040932Z 01018KT 22/16 A3012 RMK A01 T02190158  RH  068%=      5-min Rain = 0
KST3 040933Z 01014KT 22/16 A3012 RMK A01 T02190158  RH  068%=      5-min Rain = 0
KST3 040934Z 01016KT 22/16 A3012 RMK A01 T02190158  RH  068%=      5-min Rain = 0
KST3 040935Z 01015KT 22/16 A3012 RMK A01 T02190157  RH  068%=      5-min Rain = 0
KST3 040936Z 01017KT 22/16 A3012 RMK A01 T02190156  RH  067%=      5-min Rain = 0
KST3 040937Z 01016KT 22/16 A3012 RMK A01 T02200156  RH  067%=      5-min Rain = 0
KST3 040938Z 01018KT 22/16 A3012 RMK A01 T02200155  RH  067%=      5-min Rain = 0
KST3 040939Z 01018KT 22/16 A3012 RMK A01 T02210155  RH  067%=      5-min Rain = 0
KST3 040940Z 01015KT 22/16 A3012 RMK A01 T02200155  RH  067%=      5-min Rain = 0
KST3 040941Z 01014KT 22/16 A3012 RMK A01 T02210156  RH  067%=      5-min Rain = 0
KST3 040942Z 02017KT 22/16 A3012 RMK A01 T02200155  RH  067%=      5-min Rain = 0
KST3 040943Z 01017KT 22/16 A3012 RMK A01 T02200155  RH  066%=      5-min Rain = 0
KST3 040944Z 01017KT 22/15 A3012 RMK A01 T02200154  RH  066%=      5-min Rain = 0
KST3 040945Z 01014KT 22/15 A3012 RMK A01 T02200154  RH  066%=      5-min Rain = 0
KST3 040946Z 02015KT 22/15 A3012 RMK A01 T02200154  RH  066%=      5-min Rain = 0
KST3 040947Z 01013G18KT 22/15 A3012 RMK A01 T02200154  RH  066%=      5-min Rain = 0
KST3 040948Z 01013KT 22/15 A3012 RMK A01 T02210153  RH  066%=      5-min Rain = 0
KST3 040949Z 01013KT 22/15 A3012 RMK A01 T02210153  RH  065%=      5-min Rain = 0
KST3 040950Z 01014KT 22/15 A3012 RMK A01 T02210153  RH  065%=      5-min Rain = 0
KST3 040951Z 01015KT 22/15 A3012 RMK A01 T02210152  RH  065%=      5-min Rain = 0
KST3 040952Z 01012KT 22/15 A3012 RMK A01 T02210153  RH  065%=      5-min Rain = 0
KST3 040953Z 01012KT 22/15 A3012 RMK A01 T02210154  RH  066%=      5-min Rain = 0
KST3 040954Z 01013KT 22/15 A3012 RMK A01 T02210154  RH  066%=      5-min Rain = 0
KST3 040955Z 01013KT 22/15 A3012 RMK A01 T02200154  RH  066%=      5-min Rain = 0
KST3 040956Z 01012KT 22/15 A3012 RMK A01 T02200154  RH  066%=      5-min Rain = 0
KST3 040957Z 01013KT 22/15 A3012 RMK A01 T02190154  RH  066%=      5-min Rain = 0
KST3 040958Z 01011KT 22/15 A3012 RMK A01 T02190154  RH  066%=      5-min Rain = 0
KST3 040959Z 01011KT 22/15 A3012 RMK A01 T02190154  RH  066%=      5-min Rain = 0
KST3 041000Z 01010KT 22/15 A3012 RMK A01 T02190154  RH  066%=      5-min Rain = 0
KST3 041001Z 01010KT 22/15 A3012 RMK A01 T02190154  RH  066%=      5-min Rain = 0
KST3 041002Z 01009KT 22/15 A3012 RMK A01 T02190154  RH  066%=      5-min Rain = 0
KST3 041003Z 01009KT 22/15 A3012 RMK A01 T02190153  RH  066%=      5-min Rain = 0
KST3 041004Z 01011KT 22/15 A3012 RMK A01 T02190153  RH  066%=      5-min Rain = 0
KST3 041005Z 01012KT 22/15 A3012 RMK A01 T02190153  RH  066%=      5-min Rain = 0
KST3 041006Z 01012KT 22/15 A3012 RMK A01 T02190153  RH  066%=      5-min Rain = 0
KST3 041007Z 02010KT 22/15 A3012 RMK A01 T02190153  RH  066%=      5-min Rain = 0
KST3 041008Z 02012KT 22/15 A3012 RMK A01 T02190153  RH  066%=      5-min Rain = 0
KST3 041009Z 02012KT 22/15 A3012 RMK A01 T02190153  RH  066%=      5-min Rain = 0
KST3 041010Z 02011KT 22/15 A3012 RMK A01 T02200154  RH  066%=      5-min Rain = 0
KST3 041011Z 01009KT 22/15 A3012 RMK A01 T02190154  RH  066%=      5-min Rain = 0
KST3 041012Z 02009KT 22/15 A3012 RMK A01 T02190154  RH  067%=      5-min Rain = 0
KST3 041013Z 02009KT 22/15 A3012 RMK A01 T02190153  RH  066%=      5-min Rain = 0
KST3 041014Z 02009KT 22/15 A3012 RMK A01 T02180153  RH  066%=      5-min Rain = 0
KST3 041015Z 02009KT 22/15 A3012 RMK A01 T02190154  RH  067%=      5-min Rain = 0
KST3 041016Z 02009KT 22/16 A3012 RMK A01 T02180155  RH  067%=      5-min Rain = 0
KST3 041017Z 02009KT 22/16 A3012 RMK A01 T02180155  RH  067%=      5-min Rain = 0
KST3 041018Z 01009KT 22/16 A3012 RMK A01 T02170155  RH  068%=      5-min Rain = 0
KST3 041019Z 02008KT 22/16 A3012 RMK A01 T02170155  RH  068%=      5-min Rain = 0
KST3 041020Z 01009KT 22/16 A3012 RMK A01 T02170156  RH  068%=      5-min Rain = 0
KST3 041021Z 01009KT 22/16 A3012 RMK A01 T02160155  RH  068%=      5-min Rain = 0
KST3 041022Z 01008KT 22/16 A3012 RMK A01 T02160155  RH  068%=      5-min Rain = 0
KST3 041023Z 00010KT 22/16 A3012 RMK A01 T02160156  RH  068%=      5-min Rain = 0
KST3 041024Z 35009KT 22/16 A3013 RMK A01 T02160156  RH  068%=      5-min Rain = 0
KST3 041025Z 35008KT 22/16 A3013 RMK A01 T02160156  RH  069%=      5-min Rain = 0
KST3 041026Z 34009KT 22/16 A3013 RMK A01 T02160156  RH  069%=      5-min Rain = 0
KST3 041027Z 34012KT 22/16 A3013 RMK A01 T02160156  RH  069%=      5-min Rain = 0
KST3 041028Z 32012KT 22/16 A3013 RMK A01 T02150156  RH  069%=      5-min Rain = 0
KST3 041029Z 32012KT 22/16 A3014 RMK A01 T02160157  RH  069%=      5-min Rain = 0
KST3 041030Z 32014KT 22/16 A3014 RMK A01 T02150157  RH  069%=      5-min Rain = 0
KST3 041031Z 31013KT 21/16 A3014 RMK A01 T02140158  RH  070%=      5-min Rain = 0
KST3 041032Z 32013KT 21/16 A3014 RMK A01 T02130160  RH  072%=      5-min Rain = 0
KST3 041033Z 31013KT 21/16 A3014 RMK A01 T02110163  RH  074%=      5-min Rain = 0
KST3 041034Z 31011KT 21/16 A3014 RMK A01 T02080164  RH  076%=      5-min Rain = 0
KST3 041035Z 32012KT 21/16 A3013 RMK A01 T02060164  RH  077%=      5-min Rain = 0
KST3 041036Z 33010KT 21/16 A3013 RMK A01 T02050164  RH  077%=      5-min Rain = 0
KST3 041037Z 34012KT 21/16 A3013 RMK A01 T02050164  RH  077%=      5-min Rain = 0
KST3 041038Z 35010KT 20/16 A3013 RMK A01 T02040162  RH  077%=      5-min Rain = 0
KST3 041039Z 35009KT 20/16 A3012 RMK A01 T02040162  RH  076%=      5-min Rain = 0
KST3 041040Z 35009KT 21/16 A3012 RMK A01 T02050161  RH  076%=      5-min Rain = 0
KST3 041041Z 35008KT 21/16 A3012 RMK A01 T02050160  RH  075%=      5-min Rain = 0
KST3 041042Z 34009KT 21/16 A3012 RMK A01 T02060160  RH  075%=      5-min Rain = 0
KST3 041043Z 34007KT 21/16 A3012 RMK A01 T02060159  RH  075%=      5-min Rain = 0
KST3 041044Z 34007KT 21/16 A3013 RMK A01 T02060160  RH  075%=      5-min Rain = 0
KST3 041045Z 32006KT 21/16 A3013 RMK A01 T02070160  RH  074%=      5-min Rain = 0
KST3 041046Z 33009G14KT 21/16 A3013 RMK A01 T02070156  RH  073%=      5-min Rain = 0
KST3 041047Z 33011KT 21/15 A3013 RMK A01 T02100152  RH  069%=      5-min Rain = 0
KST3 041048Z 32010KT 21/15 A3013 RMK A01 T02120153  RH  069%=      5-min Rain = 0
KST3 041049Z 32012KT 21/15 A3013 RMK A01 T02130152  RH  068%=      5-min Rain = 0
KST3 041050Z 31011KT 21/15 A3013 RMK A01 T02140151  RH  067%=      5-min Rain = 0
KST3 041051Z 31013KT 22/15 A3013 RMK A01 T02150153  RH  068%=      5-min Rain = 0
KST3 041052Z 31013KT 21/16 A3013 RMK A01 T02140156  RH  069%=      5-min Rain = 0
KST3 041053Z 32012KT 21/16 A3013 RMK A01 T02130156  RH  070%=      5-min Rain = 0
KST3 041054Z 32011KT 21/16 A3013 RMK A01 T02120156  RH  070%=      5-min Rain = 0
KST3 041055Z 32011KT 21/16 A3013 RMK A01 T02120156  RH  071%=      5-min Rain = 0
KST3 041056Z 32011KT 21/16 A3013 RMK A01 T02110156  RH  071%=      5-min Rain = 0
KST3 041057Z 33010KT 21/16 A3013 RMK A01 T02110157  RH  071%=      5-min Rain = 0
KST3 041058Z 33011KT 21/16 A3013 RMK A01 T02110157  RH  071%=      5-min Rain = 0
KST3 041059Z 32010KT 21/16 A3013 RMK A01 T02100157  RH  071%=      5-min Rain = 0
KST3 041100Z 32009KT 21/16 A3013 RMK A01 T02100157  RH  072%=      5-min Rain = 0
KST3 041101Z 31009KT 21/16 A3013 RMK A01 T02100158  RH  072%=      5-min Rain = 0
KST3 041102Z 31011KT 21/16 A3013 RMK A01 T02090157  RH  072%=      5-min Rain = 0
KST3 041103Z 30009KT 21/16 A3013 RMK A01 T02090156  RH  072%=      5-min Rain = 0
KST3 041104Z 30010KT 21/16 A3013 RMK A01 T02090156  RH  072%=      5-min Rain = 0
KST3 041105Z 30011KT 21/16 A3013 RMK A01 T02090156  RH  071%=      5-min Rain = 0
KST3 041106Z 30011KT 21/16 A3013 RMK A01 T02100156  RH  071%=      5-min Rain = 0
KST3 041107Z 30012KT 21/16 A3013 RMK A01 T02090156  RH  071%=      5-min Rain = 0
KST3 041108Z 30010KT 21/16 A3013 RMK A01 T02090156  RH  071%=      5-min Rain = 0
KST3 041109Z 30009KT 21/16 A3013 RMK A01 T02100157  RH  072%=      5-min Rain = 0
KST3 041110Z 31010KT 21/16 A3013 RMK A01 T02100157  RH  072%=      5-min Rain = 0
KST3 041111Z 31009KT 21/16 A3013 RMK A01 T02100158  RH  072%=      5-min Rain = 0
KST3 041112Z 31010KT 21/16 A3012 RMK A01 T02090158  RH  072%=      5-min Rain = 0
KST3 041113Z 31011KT 21/16 A3012 RMK A01 T02090158  RH  072%=      5-min Rain = 0
KST3 041114Z 31010KT 21/16 A3012 RMK A01 T02090158  RH  073%=      5-min Rain = 0
KST3 041115Z 31009KT 21/16 A3013 RMK A01 T02090158  RH  073%=      5-min Rain = 0
KST3 041116Z 30009KT 21/16 A3013 RMK A01 T02080159  RH  073%=      5-min Rain = 0
KST3 041117Z 31010KT 21/16 A3013 RMK A01 T02080159  RH  074%=      5-min Rain = 0
KST3 041118Z 30009KT 21/16 A3013 RMK A01 T02070159  RH  074%=      5-min Rain = 0
KST3 041119Z 31011KT 21/16 A3013 RMK A01 T02070160  RH  074%=      5-min Rain = 0
KST3 041120Z 31010KT 21/16 A3013 RMK A01 T02070160  RH  075%=      5-min Rain = 0
KST3 041121Z 32011KT 21/16 A3012 RMK A01 T02060160  RH  075%=      5-min Rain = 0
KST3 041122Z 31011KT 21/16 A3012 RMK A01 T02060161  RH  075%=      5-min Rain = 0
KST3 041123Z 31009KT 21/16 A3012 RMK A01 T02060161  RH  075%=      5-min Rain = 0
KST3 041124Z 31010KT 21/16 A3012 RMK A01 T02060161  RH  076%=      5-min Rain = 0
KST3 041125Z 31010KT 21/16 A3012 RMK A01 T02060161  RH  076%=      5-min Rain = 0
KST3 041126Z 31009KT 21/16 A3012 RMK A01 T02050161  RH  076%=      5-min Rain = 0
KST3 041127Z 31009KT 21/16 A3012 RMK A01 T02050162  RH  076%=      5-min Rain = 0
KST3 041128Z 31009KT 21/16 A3012 RMK A01 T02050162  RH  076%=      5-min Rain = 0
KST3 041129Z 31009KT 20/16 A3012 RMK A01 T02040161  RH  076%=      5-min Rain = 0
KST3 041130Z 31009KT 20/16 A3013 RMK A01 T02040161  RH  076%=      5-min Rain = 0
KST3 041131Z 30010KT 21/16 A3013 RMK A01 T02050162  RH  076%=      5-min Rain = 0
KST3 041132Z 30011KT 21/16 A3013 RMK A01 T02050162  RH  076%=      5-min Rain = 0
KST3 041133Z 30012KT 20/16 A3013 RMK A01 T02040162  RH  077%=      5-min Rain = 0
KST3 041134Z 30009KT 20/16 A3013 RMK A01 T02040162  RH  077%=      5-min Rain = 0
KST3 041135Z 30009KT 20/16 A3013 RMK A01 T02040162  RH  077%=      5-min Rain = 0
KST3 041136Z 30008KT 20/16 A3012 RMK A01 T02030162  RH  077%=      5-min Rain = 0
KST3 041137Z 31009KT 20/16 A3012 RMK A01 T02030162  RH  077%=      5-min Rain = 0
KST3 041138Z 30009KT 20/16 A3012 RMK A01 T02030162  RH  077%=      5-min Rain = 0
KST3 041139Z 31009KT 20/16 A3012 RMK A01 T02030162  RH  077%=      5-min Rain = 0
KST3 041140Z 30009KT 20/16 A3012 RMK A01 T02030162  RH  077%=      5-min Rain = 0
KST3 041141Z 30010KT 20/16 A3012 RMK A01 T02040162  RH  077%=      5-min Rain = 0
KST3 041142Z 29009KT 20/16 A3012 RMK A01 T02040162  RH  077%=      5-min Rain = 0
KST3 041143Z 30010KT 20/16 A3012 RMK A01 T02040162  RH  077%=      5-min Rain = 0
KST3 041144Z 30010KT 20/16 A3012 RMK A01 T02030161  RH  077%=      5-min Rain = 0
KST3 041145Z 30010KT 20/16 A3012 RMK A01 T02030161  RH  077%=      5-min Rain = 0
KST3 041146Z 30008KT 20/16 A3012 RMK A01 T02040161  RH  077%=      5-min Rain = 0
KST3 041147Z 31008KT 20/16 A3012 RMK A01 T02030161  RH  077%=      5-min Rain = 0
KST3 041148Z 31009KT 20/16 A3012 RMK A01 T02040162  RH  077%=      5-min Rain = 0
KST3 041149Z 30008KT 20/16 A3012 RMK A01 T02040162  RH  077%=      5-min Rain = 0
KST3 041150Z 30008KT 20/16 A3012 RMK A01 T02040161  RH  076%=      5-min Rain = 0
KST3 041151Z 29007KT 20/16 A3012 RMK A01 T02040162  RH  076%=      5-min Rain = 0
KST3 041152Z 31007KT 21/16 A3012 RMK A01 T02050162  RH  076%=      5-min Rain = 0
KST3 041153Z 31009KT 20/16 A3012 RMK A01 T02040162  RH  076%=      5-min Rain = 0
KST3 041154Z 31010KT 20/16 A3012 RMK A01 T02040161  RH  076%=      5-min Rain = 0
KST3 041155Z 30008KT 21/16 A3012 RMK A01 T02050161  RH  076%=      5-min Rain = 0
KST3 041156Z 31007KT 21/16 A3012 RMK A01 T02050162  RH  076%=      5-min Rain = 0
KST3 041157Z 30006KT 21/16 A3012 RMK A01 T02050162  RH  076%=      5-min Rain = 0
KST3 041158Z 31006KT 21/16 A3011 RMK A01 T02060162  RH  076%=      5-min Rain = 0
KST3 041159Z 32006KT 21/16 A3011 RMK A01 T02050162  RH  076%=      5-min Rain = 0
KST3 041200Z 31009KT 21/16 A3011 RMK A01 T02050160  RH  075%=      5-min Rain = 0
KST3 041201Z 32009KT 21/16 A3011 RMK A01 T02060160  RH  075%=      5-min Rain = 0
KST3 041202Z 31009KT 21/16 A3011 RMK A01 T02070160  RH  075%=      5-min Rain = 0
KST3 041203Z 31008KT 21/16 A3011 RMK A01 T02070161  RH  075%=      5-min Rain = 0
KST3 041204Z 30007KT 21/16 A3011 RMK A01 T02070161  RH  075%=      5-min Rain = 0
KST3 041205Z 31006KT 21/16 A3011 RMK A01 T02070161  RH  075%=      5-min Rain = 0
KST3 041206Z 31007KT 21/16 A3011 RMK A01 T02070162  RH  075%=      5-min Rain = 0
KST3 041207Z 30007KT 21/16 A3011 RMK A01 T02070162  RH  075%=      5-min Rain = 0
KST3 041208Z 31007KT 21/16 A3011 RMK A01 T02070162  RH  075%=      5-min Rain = 0
KST3 041209Z 31007KT 21/16 A3011 RMK A01 T02070162  RH  075%=      5-min Rain = 0
KST3 041210Z 31006KT 21/16 A3011 RMK A01 T02070162  RH  075%=      5-min Rain = 0
KST3 041211Z 31007KT 21/16 A3011 RMK A01 T02070162  RH  075%=      5-min Rain = 0
KST3 041212Z 30007KT 21/16 A3011 RMK A01 T02070161  RH  075%=      5-min Rain = 0
KST3 041213Z 30006KT 21/16 A3011 RMK A01 T02070161  RH  075%=      5-min Rain = 0
KST3 041214Z 30006KT 21/16 A3011 RMK A01 T02070161  RH  075%=      5-min Rain = 0
KST3 041215Z 30006KT 21/16 A3011 RMK A01 T02080161  RH  074%=      5-min Rain = 0
KST3 041216Z 30007KT 21/16 A3011 RMK A01 T02080161  RH  074%=      5-min Rain = 0
KST3 041217Z 30006KT 21/16 A3011 RMK A01 T02080161  RH  074%=      5-min Rain = 0
KST3 041218Z 30007KT 21/16 A3011 RMK A01 T02080161  RH  074%=      5-min Rain = 0
KST3 041219Z 30007KT 21/16 A3011 RMK A01 T02080161  RH  074%=      5-min Rain = 0
KST3 041220Z 30006KT 21/16 A3011 RMK A01 T02080161  RH  074%=      5-min Rain = 0
KST3 041221Z 30007KT 21/16 A3011 RMK A01 T02090161  RH  074%=      5-min Rain = 0
KST3 041222Z 29007KT 21/16 A3011 RMK A01 T02090161  RH  074%=      5-min Rain = 0
KST3 041223Z 29008KT 21/16 A3011 RMK A01 T02090160  RH  074%=      5-min Rain = 0
KST3 041224Z 29007KT 21/16 A3011 RMK A01 T02100160  RH  073%=      5-min Rain = 0
KST3 041225Z 30006KT 21/16 A3011 RMK A01 T02100160  RH  073%=      5-min Rain = 0
KST3 041226Z 30006KT 21/16 A3011 RMK A01 T02100160  RH  073%=      5-min Rain = 0
KST3 041227Z 31004KT 21/16 A301 RMK A01 T02100160  RH  073%=      5-min Rain = 0
KST3 041228Z 32004KT 21/16 A301 RMK A01 T02110160  RH  073%=      5-min Rain = 0
KST3 041229Z 32004KT 21/16 A301 RMK A01 T02110161  RH  073%=      5-min Rain = 0
KST3 041230Z 31003KT 21/16 A301 RMK A01 T02120161  RH  073%=      5-min Rain = 0
KST3 041231Z 30003KT 21/16 A301 RMK A01 T02120163  RH  073%=      5-min Rain = 0
KST3 041232Z 30004KT 21/17 A301 RMK A01 T02120165  RH  074%=      5-min Rain = 0
KST3 041233Z 30005KT 21/17 A301 RMK A01 T02110165  RH  075%=      5-min Rain = 0
KST3 041234Z 31006KT 21/17 A301 RMK A01 T02100167  RH  076%=      5-min Rain = 0
KST3 041235Z 31008KT 21/17 A301 RMK A01 T02100166  RH  076%=      5-min Rain = 0
KST3 041236Z 31009KT 21/17 A301 RMK A01 T02090167  RH  077%=      5-min Rain = 0
KST3 041237Z 30009KT 21/17 A301 RMK A01 T02090168  RH  078%=      5-min Rain = 0
KST3 041238Z 29009KT 21/17 A3011 RMK A01 T02080172  RH  080%=      5-min Rain = 0
KST3 041239Z 29009KT 21/18 A3011 RMK A01 T02060175  RH  082%=      5-min Rain = 0
KST3 041240Z 29009KT 21/18 A3011 RMK A01 T02050175  RH  083%=      5-min Rain = 0
KST3 041241Z 29009KT 20/18 A3011 RMK A01 T02040175  RH  083%=      5-min Rain = 0
KST3 041242Z 28009KT 20/17 A3011 RMK A01 T02030174  RH  083%=      5-min Rain = 0
KST3 041243Z 28009KT 20/17 A3011 RMK A01 T02030174  RH  083%=      5-min Rain = 0
KST3 041244Z 28009KT 20/18 A301 RMK A01 T02030175  RH  084%=      5-min Rain = 0
KST3 041245Z 28007KT 20/17 A301 RMK A01 T02030174  RH  083%=      5-min Rain = 0
KST3 041246Z 29008KT 20/17 A301 RMK A01 T02030174  RH  084%=      5-min Rain = 0
KST3 041247Z 28006KT 20/17 A301 RMK A01 T02030173  RH  083%=      5-min Rain = 0
KST3 041248Z 28006KT 20/17 A301 RMK A01 T02030174  RH  083%=      5-min Rain = 0
KST3 041249Z 28006KT 20/17 A301 RMK A01 T02030174  RH  083%=      5-min Rain = 0
KST3 041250Z 28005KT 20/17 A301 RMK A01 T02030171  RH  082%=      5-min Rain = 0
KST3 041251Z 28004KT 20/17 A301 RMK A01 T02040171  RH  081%=      5-min Rain = 0
KST3 041252Z 27003KT 21/17 A301 RMK A01 T02050171  RH  081%=      5-min Rain = 0
KST3 041253Z 26004KT 21/17 A301 RMK A01 T02050172  RH  081%=      5-min Rain = 0
KST3 041254Z 25005KT 21/18 A301 RMK A01 T02060175  RH  082%=      5-min Rain = 0
KST3 041255Z 25004KT 21/18 A301 RMK A01 T02060176  RH  083%=      5-min Rain = 0
KST3 041256Z 26004KT 21/18 A301 RMK A01 T02060175  RH  083%=      5-min Rain = 0
KST3 041257Z 26004KT 21/18 A301 RMK A01 T02060177  RH  083%=      5-min Rain = 0
KST3 041258Z 25004KT 21/18 A301 RMK A01 T02070175  RH  082%=      5-min Rain = 0
KST3 041259Z 23004KT 21/18 A301 RMK A01 T02070176  RH  082%=      5-min Rain = 0
KST3 041300Z 24004KT 21/17 A301 RMK A01 T02080174  RH  081%=      5-min Rain = 0
KST3 041301Z 25004KT 21/17 A301 RMK A01 T02080173  RH  080%=      5-min Rain = 0
KST3 041302Z 24004KT 21/18 A301 RMK A01 T02090175  RH  081%=      5-min Rain = 0
KST3 041303Z 23004KT 21/18 A301 RMK A01 T02090175  RH  081%=      5-min Rain = 0
KST3 041304Z 24004KT 21/18 A301 RMK A01 T02100176  RH  081%=      5-min Rain = 0
KST3 041305Z 25003KT 21/18 A3009 RMK A01 T02090176  RH  081%=      5-min Rain = 0
KST3 041306Z 25003KT 21/18 A3009 RMK A01 T02090176  RH  081%=      5-min Rain = 0
KST3 041307Z 24002KT 21/18 A3009 RMK A01 T02100177  RH  082%=      5-min Rain = 0
KST3 041308Z 24002KT 21/18 A3009 RMK A01 T02100175  RH  080%=      5-min Rain = 0
KST3 041309Z 21002KT 21/17 A3009 RMK A01 T02110174  RH  079%=      5-min Rain = 0
KST3 041310Z 19002KT 21/17 A3009 RMK A01 T02120174  RH  079%=      5-min Rain = 0
KST3 041311Z 17002KT 21/17 A3009 RMK A01 T02130174  RH  078%=      5-min Rain = 0
KST3 041312Z 15002KT 22/17 A3009 RMK A01 T02150174  RH  078%=      5-min Rain = 0
KST3 041313Z 14002KT 22/17 A3009 RMK A01 T02160174  RH  077%=      5-min Rain = 0
KST3 041314Z 13003KT 22/18 A3009 RMK A01 T02180176  RH  077%=      5-min Rain = 0
KST3 041315Z 12003KT 22/18 A3009 RMK A01 T02200176  RH  076%=      5-min Rain = 0
KST3 041316Z 12003KT 22/18 A3009 RMK A01 T02210175  RH  075%=      5-min Rain = 0
KST3 041317Z 12003KT 22/17 A3009 RMK A01 T02220174  RH  074%=      5-min Rain = 0
KST3 041318Z 13003KT 22/17 A3009 RMK A01 T02230166  RH  070%=      5-min Rain = 0
KST3 041319Z 13003KT 22/17 A3009 RMK A01 T02240169  RH  071%=      5-min Rain = 0
KST3 041320Z 13005KT 23/16 A3009 RMK A01 T02260158  RH  065%=      5-min Rain = 0
KST3 041321Z 13004KT 23/16 A3009 RMK A01 T02290160  RH  065%=      5-min Rain = 0
KST3 041322Z 13003KT 23/17 A3009 RMK A01 T02320167  RH  067%=      5-min Rain = 0
KST3 041323Z 13002KT 23/17 A3009 RMK A01 T02330172  RH  069%=      5-min Rain = 0
KST3 041324Z 14003KT 23/17 A3009 RMK A01 T02330173  RH  069%=      5-min Rain = 0
KST3 041325Z 15002KT 23/17 A3009 RMK A01 T02330174  RH  070%=      5-min Rain = 0
KST3 041326Z 18002KT 23/17 A3009 RMK A01 T02320174  RH  070%=      5-min Rain = 0
KST3 041327Z 19002KT 23/18 A3009 RMK A01 T02310177  RH  072%=      5-min Rain = 0
KST3 041328Z 18002KT 23/18 A3009 RMK A01 T02300176  RH  071%=      5-min Rain = 0
KST3 041329Z 15003KT 23/18 A3009 RMK A01 T02300177  RH  072%=      5-min Rain = 0
KST3 041330Z 16004KT 23/18 A3009 RMK A01 T02300177  RH  072%=      5-min Rain = 0
KST3 041331Z 16004KT 23/17 A3009 RMK A01 T02290174  RH  071%=      5-min Rain = 0
KST3 041332Z 15003KT 23/18 A3009 RMK A01 T02280175  RH  072%=      5-min Rain = 0
KST3 041333Z 14004KT 23/18 A3009 RMK A01 T02270176  RH  073%=      5-min Rain = 0
KST3 041334Z 13004KT 23/18 A3009 RMK A01 T02270177  RH  073%=      5-min Rain = 0
KST3 041335Z 12004KT 23/18 A3009 RMK A01 T02270176  RH  073%=      5-min Rain = 0
KST3 041336Z 11004KT 23/18 A3009 RMK A01 T02280177  RH  073%=      5-min Rain = 0
KST3 041337Z 10004KT 23/18 A3009 RMK A01 T02280178  RH  073%=      5-min Rain = 0
KST3 041338Z 09005KT 23/18 A3009 RMK A01 T02280176  RH  072%=      5-min Rain = 0
KST3 041339Z 09005KT 23/18 A3009 RMK A01 T02290175  RH  072%=      5-min Rain = 0
KST3 041340Z 09005KT 23/18 A301 RMK A01 T02290175  RH  072%=      5-min Rain = 0
KST3 041341Z 09006KT 23/18 A301 RMK A01 T02290176  RH  072%=      5-min Rain = 0
KST3 041342Z 08006KT 23/18 A301 RMK A01 T02290177  RH  073%=      5-min Rain = 0
KST3 041343Z 08007KT 23/18 A301 RMK A01 T02290176  RH  072%=      5-min Rain = 0
KST3 041344Z 08007KT 23/17 A301 RMK A01 T02300173  RH  070%=      5-min Rain = 0
KST3 041345Z 08006KT 23/17 A301 RMK A01 T02300174  RH  071%=      5-min Rain = 0
KST3 041346Z 08008KT 23/17 A301 RMK A01 T02310173  RH  070%=      5-min Rain = 0
KST3 041347Z 07009KT 23/17 A301 RMK A01 T02320169  RH  068%=      5-min Rain = 0
KST3 041348Z 08008KT 23/17 A301 RMK A01 T02330167  RH  066%=      5-min Rain = 0
KST3 041349Z 07008KT 23/17 A301 RMK A01 T02340167  RH  066%=      5-min Rain = 0
KST3 041350Z 07008KT 23/17 A301 RMK A01 T02340166  RH  065%=      5-min Rain = 0
KST3 041351Z 08008KT 23/17 A301 RMK A01 T02340167  RH  066%=      5-min Rain = 0
KST3 041352Z 08010KT 23/17 A301 RMK A01 T02340165  RH  065%=      5-min Rain = 0
KST3 041353Z 08009KT 24/16 A301 RMK A01 T02350164  RH  065%=      5-min Rain = 0
KST3 041354Z 08009KT 24/17 A301 RMK A01 T02350165  RH  065%=      5-min Rain = 0
KST3 041355Z 09009KT 23/16 A301 RMK A01 T02340163  RH  064%=      5-min Rain = 0
KST3 041356Z 09010KT 23/16 A301 RMK A01 T02340164  RH  065%=      5-min Rain = 0
KST3 041357Z 08008KT 23/17 A301 RMK A01 T02340165  RH  065%=      5-min Rain = 0
KST3 041358Z 09009KT 23/16 A301 RMK A01 T02340164  RH  065%=      5-min Rain = 0
KST3 041359Z 09009KT 23/16 A301 RMK A01 T02340164  RH  065%=      5-min Rain = 0
KST3 041400Z 09011KT 23/16 A301 RMK A01 T02330163  RH  065%=      5-min Rain = 0
KST3 041401Z 09008KT 23/16 A301 RMK A01 T02320163  RH  065%=      5-min Rain = 0
KST3 041402Z 09008KT 23/16 A301 RMK A01 T02310162  RH  065%=      5-min Rain = 0
KST3 041403Z 09009KT 23/16 A3011 RMK A01 T02320163  RH  065%=      5-min Rain = 0
KST3 041404Z 08007KT 23/16 A3011 RMK A01 T02320164  RH  066%=      5-min Rain = 0
KST3 041405Z 08010KT 23/16 A3011 RMK A01 T02330162  RH  064%=      5-min Rain = 0
KST3 041406Z 08008KT 23/16 A3011 RMK A01 T02340161  RH  064%=      5-min Rain = 0
KST3 041407Z 07009KT 24/16 A3011 RMK A01 T02350162  RH  064%=      5-min Rain = 0
KST3 041408Z 07009KT 24/16 A3011 RMK A01 T02350161  RH  063%=      5-min Rain = 0
KST3 041409Z 08008KT 23/16 A3011 RMK A01 T02340161  RH  064%=      5-min Rain = 0
KST3 041410Z 08007KT 23/16 A3011 RMK A01 T02340162  RH  064%=      5-min Rain = 0
KST3 041411Z 08008KT 24/16 A3011 RMK A01 T02350162  RH  064%=      5-min Rain = 0
KST3 041412Z 07008KT 24/16 A3011 RMK A01 T02360161  RH  063%=      5-min Rain = 0
KST3 041413Z 08007KT 24/16 A3011 RMK A01 T02360161  RH  062%=      5-min Rain = 0
KST3 041414Z 09006KT 24/16 A3011 RMK A01 T02380162  RH  062%=      5-min Rain = 0
KST3 041415Z 08006KT 24/16 A3011 RMK A01 T02410163  RH  062%=      5-min Rain = 0
KST3 041416Z 09008KT 24/16 A3011 RMK A01 T02430159  RH  059%=      5-min Rain = 0
KST3 041417Z 09008KT 25/16 A3011 RMK A01 T02450161  RH  060%=      5-min Rain = 0
KST3 041418Z 09008KT 25/16 A3011 RMK A01 T02460158  RH  058%=      5-min Rain = 0
KST3 041419Z 09007KT 25/16 A3011 RMK A01 T02470156  RH  057%=      5-min Rain = 0
KST3 041420Z 09007KT 25/16 A3012 RMK A01 T02480158  RH  057%=      5-min Rain = 0
KST3 041421Z 10007KT 25/16 A3012 RMK A01 T02500155  RH  056%=      5-min Rain = 0
KST3 041422Z 08005KT 25/16 A3012 RMK A01 T02510157  RH  056%=      5-min Rain = 0
KST3 041423Z 08005KT 25/16 A3012 RMK A01 T02530156  RH  055%=      5-min Rain = 0
KST3 041424Z 07005KT 25/15 A3012 RMK A01 T02540154  RH  054%=      5-min Rain = 0
KST3 041425Z 09005KT 26/15 A3012 RMK A01 T02550152  RH  053%=      5-min Rain = 0
KST3 041426Z 09006KT 26/15 A3012 RMK A01 T02560150  RH  052%=      5-min Rain = 0
KST3 041427Z 07007KT 26/15 A3012 RMK A01 T02590150  RH  051%=      5-min Rain = 0
KST3 041428Z 06009KT 26/15 A3012 RMK A01 T02600145  RH  049%=      5-min Rain = 0
KST3 041429Z 06010KT 26/15 A3012 RMK A01 T02590146  RH  050%=      5-min Rain = 0
KST3 041430Z 06009KT 26/15 A3012 RMK A01 T02590149  RH  051%=      5-min Rain = 0
KST3 041431Z 07007KT 26/15 A3012 RMK A01 T02590150  RH  051%=      5-min Rain = 0
KST3 041432Z 08007KT 26/15 A3012 RMK A01 T02590152  RH  052%=      5-min Rain = 0
KST3 041433Z 07007KT 26/15 A3012 RMK A01 T02610151  RH  051%=      5-min Rain = 0
KST3 041434Z 07007KT 26/15 A3012 RMK A01 T02600151  RH  051%=      5-min Rain = 0
KST3 041435Z 07007KT 26/15 A3012 RMK A01 T02600152  RH  051%=      5-min Rain = 0
KST3 041436Z 07008KT 26/15 A3012 RMK A01 T02610152  RH  051%=      5-min Rain = 0
KST3 041437Z 07008KT 26/15 A3012 RMK A01 T02610152  RH  051%=      5-min Rain = 0
KST3 041438Z 07009KT 26/15 A3012 RMK A01 T02610153  RH  051%=      5-min Rain = 0
KST3 041439Z 05009KT 26/15 A3012 RMK A01 T02630153  RH  051%=      5-min Rain = 0
KST3 041440Z 07007KT 26/16 A3012 RMK A01 T02630155  RH  051%=      5-min Rain = 0
KST3 041441Z 08009KT 26/16 A3012 RMK A01 T02640156  RH  051%=      5-min Rain = 0
KST3 041442Z 07010KT 27/16 A3012 RMK A01 T02650157  RH  051%=      5-min Rain = 0
KST3 041443Z 08009KT 27/16 A3012 RMK A01 T02650160  RH  053%=      5-min Rain = 0
KST3 041444Z 07008KT 26/16 A3012 RMK A01 T02620161  RH  054%=      5-min Rain = 0
KST3 041445Z 04010KT 26/16 A3012 RMK A01 T02620160  RH  053%=      5-min Rain = 0
KST3 041446Z 04013KT 26/16 A3012 RMK A01 T02630160  RH  053%=      5-min Rain = 0
KST3 041447Z 04012KT 26/16 A3012 RMK A01 T02620161  RH  054%=      5-min Rain = 0
KST3 041448Z 04009KT 26/16 A3012 RMK A01 T02620162  RH  054%=      5-min Rain = 0
KST3 041449Z 05011KT 26/16 A3012 RMK A01 T02640161  RH  053%=      5-min Rain = 0
KST3 041450Z 04011KT 27/16 A3012 RMK A01 T02650164  RH  054%=      5-min Rain = 0
KST3 041451Z 06011KT 27/16 A3012 RMK A01 T02650162  RH  053%=      5-min Rain = 0
KST3 041452Z 05010KT 26/16 A3012 RMK A01 T02620163  RH  054%=      5-min Rain = 0
KST3 041453Z 05013KT 26/16 A3012 RMK A01 T02630164  RH  055%=      5-min Rain = 0
KST3 041454Z 05012KT 26/16 A3013 RMK A01 T02640163  RH  054%=      5-min Rain = 0
KST3 041455Z 06009KT 26/16 A3013 RMK A01 T02610163  RH  055%=      5-min Rain = 0
KST3 041456Z 05009KT 26/16 A3013 RMK A01 T02630163  RH  054%=      5-min Rain = 0
KST3 041457Z 06009KT 26/16 A3013 RMK A01 T02640163  RH  054%=      5-min Rain = 0
KST3 041458Z 07010KT 26/16 A3013 RMK A01 T02640164  RH  054%=      5-min Rain = 0
KST3 041459Z 07009KT 26/16 A3013 RMK A01 T02640162  RH  054%=      5-min Rain = 0
KST3 041500Z 06011KT 26/16 A3013 RMK A01 T02610163  RH  054%=      5-min Rain = 0
KST3 041501Z 05011KT 26/16 A3013 RMK A01 T02610163  RH  055%=      5-min Rain = 0
KST3 041502Z 06009KT 26/16 A3013 RMK A01 T02620162  RH  054%=      5-min Rain = 0
KST3 041503Z 06010KT 26/16 A3013 RMK A01 T02620162  RH  054%=      5-min Rain = 0
KST3 041504Z 07010KT 26/16 A3013 RMK A01 T02630163  RH  054%=      5-min Rain = 0
KST3 041505Z 07009KT 26/16 A3013 RMK A01 T02620164  RH  055%=      5-min Rain = 0
KST3 041506Z 06010KT 26/16 A3013 RMK A01 T02620163  RH  055%=      5-min Rain = 0
KST3 041507Z 06014KT 26/16 A3013 RMK A01 T02620163  RH  054%=      5-min Rain = 0
KST3 041508Z 06012KT 26/16 A3013 RMK A01 T02620162  RH  054%=      5-min Rain = 0
KST3 041509Z 05010KT 26/16 A3013 RMK A01 T02600162  RH  055%=      5-min Rain = 0
KST3 041510Z 05011KT 26/16 A3013 RMK A01 T02600163  RH  055%=      5-min Rain = 0
KST3 041511Z 05009KT 26/16 A3013 RMK A01 T02620164  RH  055%=      5-min Rain = 0
KST3 041512Z 04009KT 26/16 A3013 RMK A01 T02620164  RH  055%=      5-min Rain = 0
KST3 041513Z 05008KT 26/17 A3012 RMK A01 T02620165  RH  055%=      5-min Rain = 0
KST3 041514Z 04010KT 26/17 A3013 RMK A01 T02640165  RH  055%=      5-min Rain = 0
KST3 041515Z 04008KT 26/17 A3013 RMK A01 T02640166  RH  055%=      5-min Rain = 0
KST3 041516Z 03009KT 26/17 A3013 RMK A01 T02640166  RH  055%=      5-min Rain = 0
KST3 041517Z 05006KT 27/17 A3013 RMK A01 T02670167  RH  054%=      5-min Rain = 0
KST3 041518Z 07008KT 27/17 A3013 RMK A01 T02690167  RH  054%=      5-min Rain = 0
KST3 041519Z 06007KT 27/17 A3013 RMK A01 T02680166  RH  054%=      5-min Rain = 0
KST3 041520Z 07007KT 27/17 A3013 RMK A01 T02670168  RH  054%=      5-min Rain = 0
KST3 041521Z 06009KT 27/17 A3013 RMK A01 T02660168  RH  055%=      5-min Rain = 0
KST3 041522Z 05008KT 26/17 A3012 RMK A01 T02640168  RH  056%=      5-min Rain = 0
KST3 041523Z 07005KT 27/17 A3013 RMK A01 T02670169  RH  055%=      5-min Rain = 0
KST3 041524Z 05008KT 27/17 A3012 RMK A01 T02690167  RH  054%=      5-min Rain = 0
KST3 041525Z 05007KT 27/17 A3013 RMK A01 T02690167  RH  053%=      5-min Rain = 0
KST3 041526Z 06009G14KT 27/17 A3013 RMK A01 T02700169  RH  054%=      5-min Rain = 0
KST3 041527Z 06011KT 27/17 A3013 RMK A01 T02720167  RH  053%=      5-min Rain = 0
KST3 041528Z 07011KT 27/17 A3013 RMK A01 T02700166  RH  053%=      5-min Rain = 0
KST3 041529Z 07011KT 27/17 A3013 RMK A01 T02670165  RH  054%=      5-min Rain = 0
KST3 041530Z 07009KT 26/17 A3013 RMK A01 T02640165  RH  054%=      5-min Rain = 0
KST3 041531Z 07006KT 26/17 A3013 RMK A01 T02630165  RH  055%=      5-min Rain = 0
KST3 041532Z 07008KT 26/17 A3013 RMK A01 T02630165  RH  055%=      5-min Rain = 0
KST3 041533Z 07006KT 27/17 A3013 RMK A01 T02660166  RH  054%=      5-min Rain = 0
KST3 041534Z 06006KT 27/17 A3013 RMK A01 T02660166  RH  054%=      5-min Rain = 0
KST3 041535Z 05007KT 27/17 A3013 RMK A01 T02660168  RH  055%=      5-min Rain = 0
KST3 041536Z 07007KT 27/17 A3013 RMK A01 T02680168  RH  054%=      5-min Rain = 0
KST3 041537Z 08008KT 27/17 A3013 RMK A01 T02720169  RH  054%=      5-min Rain = 0
KST3 041538Z 05011KT 28/17 A3013 RMK A01 T02750167  RH  052%=      5-min Rain = 0
KST3 041539Z 04010KT 28/17 A3013 RMK A01 T02750165  RH  051%=      5-min Rain = 0
KST3 041540Z 04010KT 27/17 A3013 RMK A01 T02740165  RH  051%=      5-min Rain = 0
KST3 041541Z 05009KT 28/16 A3013 RMK A01 T02750164  RH  051%=      5-min Rain = 0
KST3 041542Z 07008KT 28/17 A3013 RMK A01 T02760168  RH  052%=      5-min Rain = 0
KST3 041543Z 07007KT 27/17 A3013 RMK A01 T02740168  RH  052%=      5-min Rain = 0
KST3 041544Z 07008KT 27/17 A3013 RMK A01 T02710168  RH  053%=      5-min Rain = 0
KST3 041545Z 08009KT 27/17 A3013 RMK A01 T02720170  RH  054%=      5-min Rain = 0
KST3 041546Z 08007KT 28/17 A3013 RMK A01 T02750169  RH  053%=      5-min Rain = 0
KST3 041547Z 08008KT 28/17 A3013 RMK A01 T02760169  RH  052%=      5-min Rain = 0
KST3 041548Z 08005KT 27/17 A3013 RMK A01 T02740169  RH  053%=      5-min Rain = 0
KST3 041549Z 07010KT 28/17 A3013 RMK A01 T02750170  RH  053%=      5-min Rain = 0
KST3 041550Z 08009KT 28/17 A3013 RMK A01 T02750169  RH  052%=      5-min Rain = 0
KST3 041551Z 07009KT 27/17 A3013 RMK A01 T02740168  RH  052%=      5-min Rain = 0
KST3 041552Z 08008KT 27/17 A3013 RMK A01 T02720168  RH  053%=      5-min Rain = 0
KST3 041553Z 08007KT 27/17 A3013 RMK A01 T02710169  RH  053%=      5-min Rain = 0
KST3 041554Z 06008KT 27/17 A3013 RMK A01 T02700169  RH  054%=      5-min Rain = 0
KST3 041555Z 05008KT 27/17 A3013 RMK A01 T02720168  RH  053%=      5-min Rain = 0
KST3 041556Z 07007KT 27/17 A3013 RMK A01 T02740169  RH  053%=      5-min Rain = 0
KST3 041557Z 06008KT 27/17 A3013 RMK A01 T02740169  RH  053%=      5-min Rain = 0
KST3 041558Z 06007KT 27/17 A3013 RMK A01 T02740169  RH  053%=      5-min Rain = 0
KST3 041559Z 07007KT 28/17 A3013 RMK A01 T02760169  RH  052%=      5-min Rain = 0
KST3 041600Z 07007KT 28/17 A3012 RMK A01 T02780168  RH  051%=      5-min Rain = 0
KST3 041601Z 06010KT 28/17 A3013 RMK A01 T02790168  RH  051%=      5-min Rain = 0
KST3 041602Z 08008KT 28/17 A3013 RMK A01 T02780169  RH  052%=      5-min Rain = 0
KST3 041603Z 08009KT 28/17 A3013 RMK A01 T02780168  RH  051%=      5-min Rain = 0
KST3 041604Z 08005KT 28/17 A3013 RMK A01 T02750168  RH  052%=      5-min Rain = 0
KST3 041605Z 07003KT 27/17 A3013 RMK A01 T02730167  RH  052%=      5-min Rain = 0
KST3 041606Z 08006KT 27/17 A3013 RMK A01 T02730168  RH  053%=      5-min Rain = 0
KST3 041607Z 05007KT 28/17 A3013 RMK A01 T02780169  RH  052%=      5-min Rain = 0
KST3 041608Z 06007KT 28/17 A3013 RMK A01 T02800167  RH  050%=      5-min Rain = 0
KST3 041609Z 05007KT 28/17 A3013 RMK A01 T02780169  RH  052%=      5-min Rain = 0
KST3 041610Z 05010KT 28/17 A3013 RMK A01 T02780168  RH  051%=      5-min Rain = 0
KST3 041611Z 04009KT 28/17 A3013 RMK A01 T02770169  RH  052%=      5-min Rain = 0
KST3 041612Z 04008KT 28/17 A3013 RMK A01 T02780167  RH  051%=      5-min Rain = 0
KST3 041613Z 06006KT 28/17 A3013 RMK A01 T02770167  RH  051%=      5-min Rain = 0
KST3 041614Z 08005KT 28/17 A3013 RMK A01 T02770169  RH  052%=      5-min Rain = 0
KST3 041615Z 07005KT 28/17 A3013 RMK A01 T02770172  RH  053%=      5-min Rain = 0
KST3 041616Z 04007KT 28/17 A3013 RMK A01 T02800173  RH  052%=      5-min Rain = 0
KST3 041617Z 03006KT 28/17 A3013 RMK A01 T02810172  RH  052%=      5-min Rain = 0
KST3 041618Z 06004KT 28/17 A3013 RMK A01 T02810172  RH  052%=      5-min Rain = 0
KST3 041619Z 04005KT 28/17 A3013 RMK A01 T02790173  RH  052%=      5-min Rain = 0
KST3 041620Z 05011KT 28/17 A3013 RMK A01 T02780172  RH  052%=      5-min Rain = 0
KST3 041621Z 08006KT 28/17 A3013 RMK A01 T02780172  RH  052%=      5-min Rain = 0
KST3 041622Z 06006KT 28/17 A3013 RMK A01 T02790171  RH  052%=      5-min Rain = 0
KST3 041623Z 07006G15KT 28/17 A3013 RMK A01 T02790171  RH  052%=      5-min Rain = 0
KST3 041624Z 07011KT 28/17 A3013 RMK A01 T02800172  RH  052%=      5-min Rain = 0
KST3 041625Z 06009KT 28/17 A3013 RMK A01 T02810172  RH  052%=      5-min Rain = 0
KST3 041626Z 05011KT 28/17 A3013 RMK A01 T02800171  RH  051%=      5-min Rain = 0
KST3 041627Z 04010KT 28/17 A3013 RMK A01 T02800170  RH  051%=      5-min Rain = 0
KST3 041628Z 03008KT 28/17 A3013 RMK A01 T02790170  RH  051%=      5-min Rain = 0
KST3 041629Z 06005KT 28/17 A3013 RMK A01 T02820172  RH  051%=      5-min Rain = 0
KST3 041630Z 08005KT 29/17 A3013 RMK A01 T02860173  RH  050%=      5-min Rain = 0
KST3 041631Z 11006KT 29/17 A3013 RMK A01 T02890172  RH  049%=      5-min Rain = 0
KST3 041632Z 09008KT 29/17 A3013 RMK A01 T02930172  RH  048%=      5-min Rain = 0
KST3 041633Z 09008KT 30/17 A3013 RMK A01 T02950169  RH  047%=      5-min Rain = 0
KST3 041634Z 09004KT 29/17 A3013 RMK A01 T02900167  RH  047%=      5-min Rain = 0
KST3 041635Z 07009KT 29/17 A3013 RMK A01 T02870169  RH  049%=      5-min Rain = 0
KST3 041636Z 05009KT 29/17 A3013 RMK A01 T02890169  RH  048%=      5-min Rain = 0
KST3 041637Z 05010KT 29/17 A3013 RMK A01 T02900167  RH  047%=      5-min Rain = 0
KST3 041638Z 07008KT 29/16 A3013 RMK A01 T02890164  RH  047%=      5-min Rain = 0
KST3 041639Z 08005KT 29/17 A3013 RMK A01 T02860166  RH  048%=      5-min Rain = 0
KST3 041640Z 03004KT 29/17 A3013 RMK A01 T02850169  RH  049%=      5-min Rain = 0
KST3 041641Z 05007KT 29/17 A3013 RMK A01 T02860167  RH  048%=      5-min Rain = 0
KST3 041642Z 07006KT 29/17 A3013 RMK A01 T02860166  RH  048%=      5-min Rain = 0
KST3 041643Z 06007KT 29/17 A3013 RMK A01 T02860167  RH  049%=      5-min Rain = 0
KST3 041644Z 04008KT 29/17 A3013 RMK A01 T02870167  RH  048%=      5-min Rain = 0
KST3 041645Z 04007KT 29/17 A3013 RMK A01 T02880168  RH  048%=      5-min Rain = 0
KST3 041646Z 03006KT 29/17 A3013 RMK A01 T02870170  RH  049%=      5-min Rain = 0
KST3 041647Z 04005KT 29/17 A3013 RMK A01 T02860171  RH  050%=      5-min Rain = 0
KST3 041648Z 08006KT 29/17 A3013 RMK A01 T02880172  RH  049%=      5-min Rain = 0
KST3 041649Z 05006KT 30/18 A3013 RMK A01 T02950176  RH  049%=      5-min Rain = 0
KST3 041650Z 06009KT 30/17 A3013 RMK A01 T03000173  RH  046%=      5-min Rain = 0
KST3 041651Z 06009KT 30/17 A3013 RMK A01 T03010172  RH  046%=      5-min Rain = 0
KST3 041652Z 05010KT 30/17 A3013 RMK A01 T02990170  RH  046%=      5-min Rain = 0
KST3 041653Z 05008KT 30/17 A3013 RMK A01 T02950169  RH  047%=      5-min Rain = 0
KST3 041654Z 04008KT 29/17 A3013 RMK A01 T02910168  RH  047%=      5-min Rain = 0
KST3 041655Z 06007KT 29/17 A3013 RMK A01 T02900168  RH  048%=      5-min Rain = 0
KST3 041656Z 11005KT 29/17 A3013 RMK A01 T02900170  RH  048%=      5-min Rain = 0
KST3 041657Z 08006KT 29/17 A3013 RMK A01 T02930171  RH  048%=      5-min Rain = 0
KST3 041658Z 09005KT 29/17 A3013 RMK A01 T02900168  RH  048%=      5-min Rain = 0
KST3 041659Z 07007KT 29/17 A3013 RMK A01 T02870167  RH  048%=      5-min Rain = 0
KST3 041700Z 06006KT 29/17 A3013 RMK A01 T02870166  RH  048%=      5-min Rain = 0
KST3 041701Z 07006KT 29/17 A3013 RMK A01 T02870166  RH  048%=      5-min Rain = 0
KST3 041702Z 08003KT 29/17 A3013 RMK A01 T02870166  RH  048%=      5-min Rain = 0
KST3 041703Z 08009KT 29/17 A3013 RMK A01 T02890168  RH  048%=      5-min Rain = 0
KST3 041704Z 08008KT 29/17 A3013 RMK A01 T02920165  RH  046%=      5-min Rain = 0
KST3 041705Z 09008KT 29/17 A3013 RMK A01 T02920165  RH  046%=      5-min Rain = 0
KST3 041706Z 08007KT 29/16 A3013 RMK A01 T02920164  RH  046%=      5-min Rain = 0
KST3 041707Z 07006KT 29/17 A3013 RMK A01 T02910165  RH  046%=      5-min Rain = 0
KST3 041708Z 08006KT 29/17 A3013 RMK A01 T02920165  RH  046%=      5-min Rain = 0
KST3 041709Z 09004KT 29/16 A3013 RMK A01 T02920163  RH  046%=      5-min Rain = 0
KST3 041710Z 08003KT 29/16 A3013 RMK A01 T02910164  RH  046%=      5-min Rain = 0
KST3 041711Z 08005G10KT 29/16 A3013 RMK A01 T02900164  RH  047%=      5-min Rain = 0
KST3 041712Z 08010KT 29/17 A3013 RMK A01 T02890166  RH  047%=      5-min Rain = 0
KST3 041713Z 09008KT 29/17 A3013 RMK A01 T02900167  RH  047%=      5-min Rain = 0
KST3 041714Z 09007KT 29/17 A3013 RMK A01 T02900168  RH  048%=      5-min Rain = 0
KST3 041715Z 09003KT 29/17 A3013 RMK A01 T02880169  RH  048%=      5-min Rain = 0
KST3 041716Z 08003KT 29/17 A3013 RMK A01 T02900171  RH  049%=      5-min Rain = 0
KST3 041717Z 10007KT 29/17 A3013 RMK A01 T02920170  RH  048%=      5-min Rain = 0
KST3 041718Z 11008KT 29/17 A3013 RMK A01 T02920169  RH  047%=      5-min Rain = 0
KST3 041719Z 12008KT 29/17 A3013 RMK A01 T02930169  RH  047%=      5-min Rain = 0
KST3 041720Z 11006KT 29/17 A3013 RMK A01 T02930169  RH  047%=      5-min Rain = 0
KST3 041721Z 12004KT 29/17 A3013 RMK A01 T02920168  RH  047%=      5-min Rain = 0
KST3 041722Z 11005KT 29/17 A3013 RMK A01 T02920167  RH  047%=      5-min Rain = 0
KST3 041723Z 08005KT 29/17 A3013 RMK A01 T02930170  RH  047%=      5-min Rain = 0
KST3 041724Z 09006KT 30/17 A3013 RMK A01 T02950171  RH  047%=      5-min Rain = 0
KST3 041725Z 08008KT 30/17 A3013 RMK A01 T02950172  RH  048%=      5-min Rain = 0
KST3 041726Z 07009KT 30/17 A3013 RMK A01 T02950174  RH  048%=      5-min Rain = 0
KST3 041727Z 09008KT 30/17 A3013 RMK A01 T02960174  RH  048%=      5-min Rain = 0
KST3 041728Z 07009KT 30/17 A3013 RMK A01 T02960174  RH  048%=      5-min Rain = 0
KST3 041729Z 07008KT 30/17 A3013 RMK A01 T02980174  RH  047%=      5-min Rain = 0
KST3 041730Z 05009KT 30/17 A3013 RMK A01 T02980173  RH  047%=      5-min Rain = 0
KST3 041731Z 04007KT 30/17 A3013 RMK A01 T02980172  RH  047%=      5-min Rain = 0
KST3 041732Z 08004KT 30/18 A3013 RMK A01 T02980175  RH  048%=      5-min Rain = 0
KST3 041733Z 10005KT 30/17 A3013 RMK A01 T03010173  RH  046%=      5-min Rain = 0
KST3 041734Z 10007KT 30/17 A3013 RMK A01 T03020174  RH  046%=      5-min Rain = 0
KST3 041735Z 12009KT 30/17 A3013 RMK A01 T03030174  RH  046%=      5-min Rain = 0
KST3 041736Z 12004KT 30/17 A3013 RMK A01 T03010173  RH  046%=      5-min Rain = 0
KST3 041737Z 10005KT 30/17 A3013 RMK A01 T02980173  RH  047%=      5-min Rain = 0
KST3 041738Z 11005KT 30/17 A3013 RMK A01 T02980174  RH  047%=      5-min Rain = 0
KST3 041739Z 11004KT 30/17 A3013 RMK A01 T02970172  RH  047%=      5-min Rain = 0
KST3 041740Z 07003KT 30/17 A3013 RMK A01 T02950171  RH  047%=      5-min Rain = 0
KST3 041741Z 05008G13KT 30/17 A3013 RMK A01 T02950174  RH  048%=      5-min Rain = 0
KST3 041742Z 04010KT 30/17 A3013 RMK A01 T02980174  RH  047%=      5-min Rain = 0
KST3 041743Z 02007KT 30/17 A3012 RMK A01 T02990174  RH  047%=      5-min Rain = 0
KST3 041744Z 10005KT 30/18 A3012 RMK A01 T02970175  RH  048%=      5-min Rain = 0
KST3 041745Z 11008KT 30/17 A3013 RMK A01 T02970174  RH  048%=      5-min Rain = 0
KST3 041746Z 10008KT 30/17 A3013 RMK A01 T02970173  RH  047%=      5-min Rain = 0
KST3 041747Z 11009G14KT 30/17 A3012 RMK A01 T02970172  RH  047%=      5-min Rain = 0
KST3 041748Z 11012KT 30/17 A3012 RMK A01 T02990174  RH  047%=      5-min Rain = 0
KST3 041749Z 11011KT 30/17 A3013 RMK A01 T03010174  RH  046%=      5-min Rain = 0
KST3 041750Z 09010KT 30/17 A3013 RMK A01 T03000174  RH  047%=      5-min Rain = 0
KST3 041751Z 09011KT 30/18 A3013 RMK A01 T03000175  RH  047%=      5-min Rain = 0
KST3 041752Z 09011KT 30/18 A3013 RMK A01 T03020175  RH  047%=      5-min Rain = 0
KST3 041753Z 08008KT 30/18 A3013 RMK A01 T03010175  RH  047%=      5-min Rain = 0
KST3 041754Z 10006KT 30/18 A3012 RMK A01 T03000175  RH  047%=      5-min Rain = 0
KST3 041755Z 08011KT 30/18 A3012 RMK A01 T03010175  RH  047%=      5-min Rain = 0
KST3 041756Z 07011KT 30/18 A3012 RMK A01 T03010175  RH  047%=      5-min Rain = 0
KST3 041757Z 09009KT 30/18 A3013 RMK A01 T03000175  RH  047%=      5-min Rain = 0
KST3 041758Z 08008KT 30/17 A3013 RMK A01 T02980174  RH  047%=      5-min Rain = 0
KST3 041759Z 06006KT 30/17 A3012 RMK A01 T02960174  RH  048%=      5-min Rain = 0
KST3 041800Z 09004KT 30/17 A3012 RMK A01 T02950173  RH  048%=      5-min Rain = 0
KST3 041801Z 11008KT 29/17 A3012 RMK A01 T02940170  RH  047%=      5-min Rain = 0
KST3 041802Z 09010KT 29/16 A3012 RMK A01 T02940162  RH  045%=      5-min Rain = 0
KST3 041803Z 08010KT 30/16 A3012 RMK A01 T02950162  RH  045%=      5-min Rain = 0
KST3 041804Z 08009KT 29/16 A3012 RMK A01 T02930163  RH  045%=      5-min Rain = 0
KST3 041805Z 10010KT 29/17 A3012 RMK A01 T02930165  RH  046%=      5-min Rain = 0
KST3 041806Z 09009KT 30/17 A3012 RMK A01 T02960166  RH  046%=      5-min Rain = 0
KST3 041807Z 09006KT 30/17 A3012 RMK A01 T02950166  RH  046%=      5-min Rain = 0
KST3 041808Z 09007KT 29/17 A3012 RMK A01 T02930166  RH  046%=      5-min Rain = 0
KST3 041809Z 09006KT 29/16 A3012 RMK A01 T02930164  RH  046%=      5-min Rain = 0
KST3 041810Z 12009KT 29/16 A3012 RMK A01 T02930164  RH  046%=      5-min Rain = 0
KST3 041811Z 11010KT 30/16 A3012 RMK A01 T02960164  RH  045%=      5-min Rain = 0
KST3 041812Z 12011KT 30/16 A3012 RMK A01 T02970164  RH  045%=      5-min Rain = 0
KST3 041813Z 12008KT 29/16 A3012 RMK A01 T02940163  RH  045%=      5-min Rain = 0
KST3 041814Z 12008KT 29/16 A3012 RMK A01 T02930163  RH  046%=      5-min Rain = 0
KST3 041815Z 13008KT 29/16 A3012 RMK A01 T02920162  RH  045%=      5-min Rain = 0
KST3 041816Z 13007KT 29/16 A3012 RMK A01 T02900162  RH  046%=      5-min Rain = 0
KST3 041817Z 12011KT 29/16 A3012 RMK A01 T02910162  RH  046%=      5-min Rain = 0
KST3 041818Z 13010KT 29/16 A3012 RMK A01 T02910163  RH  046%=      5-min Rain = 0
KST3 041819Z 12007KT 29/16 A3012 RMK A01 T02880161  RH  046%=      5-min Rain = 0
KST3 041820Z 12008KT 29/16 A3012 RMK A01 T02870161  RH  046%=      5-min Rain = 0
KST3 041821Z 12009KT 29/16 A3012 RMK A01 T02890159  RH  045%=      5-min Rain = 0
KST3 041822Z 12008KT 29/16 A3012 RMK A01 T02890159  RH  045%=      5-min Rain = 0
KST3 041823Z 12011KT 29/16 A3012 RMK A01 T02890163  RH  046%=      5-min Rain = 0
KST3 041824Z 12007KT 29/17 A3012 RMK A01 T02890166  RH  047%=      5-min Rain = 0
KST3 041825Z 12007KT 29/17 A3012 RMK A01 T02920165  RH  046%=      5-min Rain = 0
KST3 041826Z 12008KT 30/16 A3012 RMK A01 T02950164  RH  045%=      5-min Rain = 0
KST3 041827Z 11009KT 30/17 A3012 RMK A01 T02980166  RH  045%=      5-min Rain = 0
KST3 041828Z 10007KT 30/17 A3012 RMK A01 T03010169  RH  045%=      5-min Rain = 0
KST3 041829Z 09007KT 30/17 A3012 RMK A01 T03040169  RH  044%=      5-min Rain = 0
KST3 041830Z 09008KT 30/17 A3012 RMK A01 T03030170  RH  045%=      5-min Rain = 0
KST3 041831Z 09008KT 30/17 A3012 RMK A01 T03030171  RH  045%=      5-min Rain = 0
KST3 041832Z 11008KT 30/17 A3012 RMK A01 T03030168  RH  044%=      5-min Rain = 0
KST3 041833Z 12004G9KT 30/17 A3012 RMK A01 T03010167  RH  045%=      5-min Rain = 0
KST3 041834Z 10008KT 30/17 A3012 RMK A01 T03000169  RH  045%=      5-min Rain = 0
KST3 041835Z 09008KT 30/17 A3012 RMK A01 T03020167  RH  044%=      5-min Rain = 0
KST3 041836Z 11006KT 30/17 A3012 RMK A01 T03030167  RH  044%=      5-min Rain = 0
KST3 041837Z 10011KT 30/17 A3012 RMK A01 T03030166  RH  044%=      5-min Rain = 0
KST3 041838Z 10009KT 31/17 A3012 RMK A01 T03060166  RH  043%=      5-min Rain = 0
KST3 041839Z 11008KT 31/17 A3012 RMK A01 T03060165  RH  043%=      5-min Rain = 0
KST3 041840Z 13008KT 31/16 A3011 RMK A01 T03050163  RH  042%=      5-min Rain = 0
KST3 041841Z 12007KT 30/16 A3011 RMK A01 T03030162  RH  043%=      5-min Rain = 0
KST3 041842Z 13009KT 30/16 A3011 RMK A01 T03020162  RH  043%=      5-min Rain = 0
KST3 041843Z 09010KT 30/16 A3011 RMK A01 T03030164  RH  043%=      5-min Rain = 0
KST3 041844Z 10009KT 30/16 A3012 RMK A01 T03040164  RH  043%=      5-min Rain = 0
KST3 041845Z 10008G13KT 30/16 A3011 RMK A01 T03030163  RH  043%=      5-min Rain = 0
KST3 041846Z 10011KT 30/16 A3012 RMK A01 T03030160  RH  042%=      5-min Rain = 0
KST3 041847Z 12007KT 30/16 A3011 RMK A01 T03030158  RH  041%=      5-min Rain = 0
KST3 041848Z 12005KT 30/16 A3011 RMK A01 T03040158  RH  041%=      5-min Rain = 0
KST3 041849Z 13005KT 30/16 A3011 RMK A01 T03030160  RH  042%=      5-min Rain = 0
KST3 041850Z 09006KT 30/16 A3011 RMK A01 T03030162  RH  043%=      5-min Rain = 0
KST3 041851Z 08009KT 31/17 A3011 RMK A01 T03060166  RH  043%=      5-min Rain = 0
KST3 041852Z 07009KT 31/17 A3011 RMK A01 T03090165  RH  042%=      5-min Rain = 0
KST3 041853Z 11007KT 31/17 A3011 RMK A01 T03070165  RH  043%=      5-min Rain = 0
KST3 041854Z 16009KT 31/16 A3011 RMK A01 T03090163  RH  042%=      5-min Rain = 0
KST3 041855Z 15008KT 31/16 A3011 RMK A01 T03090163  RH  041%=      5-min Rain = 0
KST3 041856Z 11009KT 31/16 A3011 RMK A01 T03130162  RH  040%=      5-min Rain = 0
KST3 041857Z 11006KT 31/16 A3011 RMK A01 T03110159  RH  040%=      5-min Rain = 0
KST3 041858Z 08005KT 31/16 A3011 RMK A01 T03080160  RH  041%=      5-min Rain = 0
KST3 041859Z 12007KT 31/16 A3011 RMK A01 T03080161  RH  041%=      5-min Rain = 0
KST3 041900Z 11007KT 31/16 A3011 RMK A01 T03090162  RH  041%=      5-min Rain = 0
KST3 041901Z 11006KT 31/16 A3011 RMK A01 T03100162  RH  041%=      5-min Rain = 0
KST3 041902Z 13005KT 31/16 A3011 RMK A01 T03100160  RH  040%=      5-min Rain = 0
KST3 041903Z 12003KT 31/16 A3011 RMK A01 T03090162  RH  041%=      5-min Rain = 0
KST3 041904Z 15007G13KT 31/16 A301 RMK A01 T03080163  RH  042%=      5-min Rain = 0
KST3 041905Z 10006KT 31/17 A3011 RMK A01 T03140168  RH  041%=      5-min Rain = 0
KST3 041906Z 07004KT 32/17 A3011 RMK A01 T03210166  RH  040%=      5-min Rain = 0
KST3 041907Z 09004KT 32/17 A301 RMK A01 T03220165  RH  039%=      5-min Rain = 0
KST3 041908Z 15005KT 32/17 A301 RMK A01 T03190168  RH  040%=      5-min Rain = 0
KST3 041909Z 12005KT 32/17 A301 RMK A01 T03190169  RH  041%=      5-min Rain = 0
KST3 041910Z 09007KT 32/16 A301 RMK A01 T03180163  RH  039%=      5-min Rain = 0
KST3 041911Z 10009KT 32/16 A301 RMK A01 T03150160  RH  039%=      5-min Rain = 0
KST3 041912Z 10009KT 31/16 A301 RMK A01 T03130161  RH  040%=      5-min Rain = 0
KST3 041913Z 10008KT 31/16 A301 RMK A01 T03110162  RH  041%=      5-min Rain = 0
KST3 041914Z 10007KT 31/16 A301 RMK A01 T03100158  RH  040%=      5-min Rain = 0
KST3 041915Z 11005KT 31/16 A301 RMK A01 T03080159  RH  041%=      5-min Rain = 0
KST3 041916Z 13004KT 31/16 A301 RMK A01 T03070158  RH  041%=      5-min Rain = 0
KST3 041917Z 13005KT 31/16 A301 RMK A01 T03060159  RH  041%=      5-min Rain = 0
KST3 041918Z 10009G14KT 30/16 A301 RMK A01 T03040162  RH  042%=      5-min Rain = 0
KST3 041919Z 10008KT 30/17 A301 RMK A01 T03030167  RH  044%=      5-min Rain = 0
KST3 041920Z 11004KT 30/17 A301 RMK A01 T03020168  RH  045%=      5-min Rain = 0
KST3 041921Z 10005G14KT 30/17 A301 RMK A01 T03000169  RH  045%=      5-min Rain = 0
KST3 041922Z 09009KT 30/17 A301 RMK A01 T03030168  RH  044%=      5-min Rain = 0
KST3 041923Z 10010KT 31/17 A301 RMK A01 T03080169  RH  043%=      5-min Rain = 0
KST3 041924Z 10012KT 32/17 A301 RMK A01 T03160169  RH  041%=      5-min Rain = 0
KST3 041925Z 12010KT 32/17 A301 RMK A01 T03180168  RH  041%=      5-min Rain = 0
KST3 041926Z 13008KT 32/17 A301 RMK A01 T03150167  RH  041%=      5-min Rain = 0
KST3 041927Z 13007KT 31/17 A301 RMK A01 T03110166  RH  042%=      5-min Rain = 0
KST3 041928Z 12005G10KT 31/17 A3009 RMK A01 T03090167  RH  043%=      5-min Rain = 0
KST3 041929Z 12007KT 31/17 A3009 RMK A01 T03090166  RH  042%=      5-min Rain = 0
KST3 041930Z 13008KT 31/17 A3009 RMK A01 T03100168  RH  043%=      5-min Rain = 0
KST3 041931Z 12008KT 32/17 A3009 RMK A01 T03160169  RH  041%=      5-min Rain = 0
KST3 041932Z 12006KT 32/17 A3009 RMK A01 T03180167  RH  041%=      5-min Rain = 0
KST3 041933Z 10007KT 31/17 A3009 RMK A01 T03140167  RH  041%=      5-min Rain = 0
KST3 041934Z 08006KT 31/17 A3009 RMK A01 T03130168  RH  042%=      5-min Rain = 0
KST3 041935Z 07008KT 31/17 A3009 RMK A01 T03120169  RH  042%=      5-min Rain = 0
KST3 041936Z 10012KT 31/17 A3009 RMK A01 T03140169  RH  042%=      5-min Rain = 0
KST3 041937Z 10012KT 32/17 A3009 RMK A01 T03150167  RH  041%=      5-min Rain = 0
KST3 041938Z 08009KT 32/17 A3009 RMK A01 T03160168  RH  041%=      5-min Rain = 0
KST3 041939Z 07008KT 32/17 A3009 RMK A01 T03170167  RH  041%=      5-min Rain = 0
KST3 041940Z 09005KT 32/17 A3009 RMK A01 T03160167  RH  041%=      5-min Rain = 0
KST3 041941Z 09009KT 32/17 A3009 RMK A01 T03170170  RH  041%=      5-min Rain = 0
KST3 041942Z 08007KT 32/16 A3009 RMK A01 T03210163  RH  039%=      5-min Rain = 0
KST3 041943Z 06001KT 32/16 A3009 RMK A01 T03160161  RH  040%=      5-min Rain = 0
KST3 041944Z 04003KT 31/16 A3009 RMK A01 T03130163  RH  040%=      5-min Rain = 0
KST3 041945Z 02004KT 31/16 A3008 RMK A01 T03120163  RH  041%=      5-min Rain = 0
KST3 041946Z 03004KT 31/16 A3008 RMK A01 T03130163  RH  040%=      5-min Rain = 0
KST3 041947Z 06008KT 31/17 A3008 RMK A01 T03130166  RH  041%=      5-min Rain = 0
KST3 041948Z 09009KT 31/17 A3008 RMK A01 T03140168  RH  042%=      5-min Rain = 0
KST3 041949Z 10006KT 32/17 A3008 RMK A01 T03180168  RH  041%=      5-min Rain = 0
KST3 041950Z 07006KT 32/17 A3008 RMK A01 T03170168  RH  041%=      5-min Rain = 0
KST3 041951Z 04008KT 32/17 A3008 RMK A01 T03180167  RH  040%=      5-min Rain = 0
KST3 041952Z 06007KT 32/17 A3008 RMK A01 T03190167  RH  040%=      5-min Rain = 0
KST3 041953Z 08009KT 32/17 A3008 RMK A01 T03210165  RH  039%=      5-min Rain = 0
KST3 041954Z 08008KT 32/17 A3008 RMK A01 T03210165  RH  039%=      5-min Rain = 0
KST3 041955Z 12008KT 32/17 A3008 RMK A01 T03230165  RH  039%=      5-min Rain = 0
KST3 041956Z 10007G12KT 33/17 A3008 RMK A01 T03260165  RH  038%=      5-min Rain = 0
KST3 041957Z 10009KT 33/16 A3008 RMK A01 T03290164  RH  037%=      5-min Rain = 0
KST3 041958Z 10011KT 33/16 A3008 RMK A01 T03290160  RH  036%=      5-min Rain = 0
KST3 041959Z 12008KT 33/16 A3008 RMK A01 T03260160  RH  037%=      5-min Rain = 0
KST3 042000Z 12006KT 33/16 A3008 RMK A01 T03250160  RH  037%=      5-min Rain = 0
KST3 042001Z 09004KT 32/16 A3008 RMK A01 T03220157  RH  037%=      5-min Rain = 0
KST3 042002Z 11004KT 32/16 A3008 RMK A01 T03190158  RH  038%=      5-min Rain = 0
KST3 042003Z 11004KT 32/16 A3008 RMK A01 T03190158  RH  038%=      5-min Rain = 0
KST3 042004Z 13005KT 32/16 A3008 RMK A01 T03190160  RH  038%=      5-min Rain = 0
KST3 042005Z 13006KT 32/16 A3008 RMK A01 T03200162  RH  039%=      5-min Rain = 0
KST3 042006Z 19004KT 32/16 A3008 RMK A01 T03220159  RH  038%=      5-min Rain = 0
KST3 042007Z 13005G11KT 32/16 A3008 RMK A01 T03200160  RH  038%=      5-min Rain = 0
KST3 042008Z 13009KT 32/16 A3008 RMK A01 T03220162  RH  038%=      5-min Rain = 0
KST3 042009Z 13006KT 32/16 A3008 RMK A01 T03230162  RH  038%=      5-min Rain = 0
KST3 042010Z 13003KT 32/16 A3007 RMK A01 T03220160  RH  038%=      5-min Rain = 0
KST3 042011Z 14002KT 32/16 A3007 RMK A01 T03200160  RH  038%=      5-min Rain = 0
KST3 042012Z 10004KT 32/16 A3007 RMK A01 T03190161  RH  039%=      5-min Rain = 0
KST3 042013Z 12010KT 32/17 A3007 RMK A01 T03200165  RH  039%=      5-min Rain = 0
KST3 042014Z 10008KT 32/16 A3007 RMK A01 T03220164  RH  039%=      5-min Rain = 0
KST3 042015Z 10010KT 32/16 A3007 RMK A01 T03210164  RH  039%=      5-min Rain = 0
KST3 042016Z 10006KT 32/16 A3007 RMK A01 T03210164  RH  039%=      5-min Rain = 0
KST3 042017Z 13007KT 32/17 A3007 RMK A01 T03210167  RH  040%=      5-min Rain = 0
KST3 042018Z 12010KT 33/17 A3007 RMK A01 T03250168  RH  039%=      5-min Rain = 0
KST3 042019Z 11007KT 33/16 A3007 RMK A01 T03270163  RH  038%=      5-min Rain = 0
KST3 042020Z 11005KT 33/17 A3007 RMK A01 T03260166  RH  038%=      5-min Rain = 0
KST3 042021Z 08005KT 33/16 A3007 RMK A01 T03250160  RH  037%=      5-min Rain = 0
KST3 042022Z 07003KT 32/16 A3007 RMK A01 T03210161  RH  038%=      5-min Rain = 0
KST3 042023Z 09004KT 32/16 A3007 RMK A01 T03200159  RH  038%=      5-min Rain = 0
KST3 042024Z 07003KT 32/16 A3007 RMK A01 T03210160  RH  038%=      5-min Rain = 0
KST3 042025Z 10003KT 32/16 A3007 RMK A01 T03230163  RH  038%=      5-min Rain = 0
KST3 042026Z 14007G13KT 33/17 A3007 RMK A01 T03280166  RH  038%=      5-min Rain = 0
KST3 042027Z 12012KT 33/16 A3007 RMK A01 T03280163  RH  037%=      5-min Rain = 0
KST3 042028Z 11012KT 32/16 A3007 RMK A01 T03220161  RH  038%=      5-min Rain = 0
KST3 042029Z 11012KT 32/16 A3007 RMK A01 T03210162  RH  038%=      5-min Rain = 0
KST3 042030Z 12011KT 32/16 A3007 RMK A01 T03220162  RH  038%=      5-min Rain = 0
KST3 042031Z 12013KT 32/16 A3007 RMK A01 T03220162  RH  038%=      5-min Rain = 0
KST3 042032Z 12009KT 32/16 A3007 RMK A01 T03170162  RH  039%=      5-min Rain = 0
KST3 042033Z 12009KT 32/16 A3006 RMK A01 T03150162  RH  040%=      5-min Rain = 0
KST3 042034Z 13007KT 31/16 A3006 RMK A01 T03130160  RH  040%=      5-min Rain = 0
KST3 042035Z 12005KT 31/16 A3006 RMK A01 T03110162  RH  041%=      5-min Rain = 0
KST3 042036Z 10006KT 31/16 A3006 RMK A01 T03130163  RH  040%=      5-min Rain = 0
KST3 042037Z 14009KT 32/17 A3006 RMK A01 T03160165  RH  040%=      5-min Rain = 0
KST3 042038Z 13010KT 32/17 A3006 RMK A01 T03200169  RH  041%=      5-min Rain = 0
KST3 042039Z 10011KT 32/17 A3006 RMK A01 T03210170  RH  041%=      5-min Rain = 0
KST3 042040Z 12009KT 32/17 A3006 RMK A01 T03230167  RH  039%=      5-min Rain = 0
KST3 042041Z 13008KT 32/17 A3006 RMK A01 T03230168  RH  039%=      5-min Rain = 0
KST3 042042Z 13008KT 32/17 A3006 RMK A01 T03230168  RH  040%=      5-min Rain = 0
KST3 042043Z 12011KT 32/17 A3006 RMK A01 T03240169  RH  040%=      5-min Rain = 0
KST3 042044Z 14010KT 33/17 A3006 RMK A01 T03250172  RH  040%=      5-min Rain = 0
KST3 042045Z 14009KT 33/17 A3006 RMK A01 T03290171  RH  039%=      5-min Rain = 0
KST3 042046Z 13008G14KT 33/17 A3006 RMK A01 T03280172  RH  039%=      5-min Rain = 0
KST3 042047Z 10014KT 33/17 A3006 RMK A01 T03270172  RH  040%=      5-min Rain = 0
KST3 042048Z 10015KT 33/17 A3006 RMK A01 T03260172  RH  040%=      5-min Rain = 0
KST3 042049Z 10014G19KT 33/17 A3006 RMK A01 T03270172  RH  039%=      5-min Rain = 0
KST3 042050Z 11009KT 32/17 A3006 RMK A01 T03230172  RH  040%=      5-min Rain = 0
KST3 042051Z 08011KT 32/17 A3006 RMK A01 T03230173  RH  041%=      5-min Rain = 0
KST3 042052Z 08008G14KT 33/17 A3006 RMK A01 T03250172  RH  040%=      5-min Rain = 0
KST3 042053Z 07009KT 32/18 A3005 RMK A01 T03230175  RH  041%=      5-min Rain = 0
KST3 042054Z 07008G13KT 32/18 A3005 RMK A01 T03240177  RH  042%=      5-min Rain = 0
KST3 042055Z 09011KT 32/18 A3005 RMK A01 T03240175  RH  041%=      5-min Rain = 0
KST3 042056Z 09011KT 33/18 A3005 RMK A01 T03270177  RH  041%=      5-min Rain = 0
KST3 042057Z 11009KT 33/18 A3005 RMK A01 T03260177  RH  041%=      5-min Rain = 0
KST3 042058Z 14009KT 33/18 A3005 RMK A01 T03260177  RH  041%=      5-min Rain = 0
KST3 042059Z 13010KT 33/18 A3005 RMK A01 T03270177  RH  041%=      5-min Rain = 0
KST3 042100Z 11011KT 33/18 A3005 RMK A01 T03270176  RH  041%=      5-min Rain = 0
KST3 042101Z 11014KT 33/17 A3005 RMK A01 T03290174  RH  040%=      5-min Rain = 0
KST3 042102Z 12012KT 33/17 A3005 RMK A01 T03250173  RH  040%=      5-min Rain = 0
KST3 042103Z 11012KT 32/17 A3005 RMK A01 T03240173  RH  041%=      5-min Rain = 0
KST3 042104Z 10012KT 32/17 A3005 RMK A01 T03240172  RH  040%=      5-min Rain = 0
KST3 042105Z 12009KT 32/17 A3005 RMK A01 T03240173  RH  040%=      5-min Rain = 0
KST3 042106Z 13005KT 32/17 A3005 RMK A01 T03230172  RH  040%=      5-min Rain = 0
KST3 042107Z 14007KT 32/17 A3005 RMK A01 T03230173  RH  041%=      5-min Rain = 0
KST3 042108Z 13004KT 32/17 A3005 RMK A01 T03230171  RH  040%=      5-min Rain = 0
KST3 042109Z 09005KT 32/17 A3005 RMK A01 T03220172  RH  041%=      5-min Rain = 0
KST3 042110Z 10007KT 32/17 A3005 RMK A01 T03210173  RH  041%=      5-min Rain = 0
KST3 042111Z 11010KT 32/17 A3005 RMK A01 T03200173  RH  041%=      5-min Rain = 0
KST3 042112Z 10013KT 32/18 A3005 RMK A01 T03200177  RH  042%=      5-min Rain = 0
KST3 042113Z 08011KT 32/18 A3005 RMK A01 T03230176  RH  042%=      5-min Rain = 0
KST3 042114Z 08012KT 32/18 A3005 RMK A01 T03220175  RH  042%=      5-min Rain = 0
KST3 042115Z 09013KT 32/18 A3005 RMK A01 T03190175  RH  042%=      5-min Rain = 0
KST3 042116Z 11013G18KT 32/18 A3005 RMK A01 T03170175  RH  043%=      5-min Rain = 0
KST3 042117Z 09010KT 32/17 A3005 RMK A01 T03160173  RH  042%=      5-min Rain = 0
KST3 042118Z 13011KT 31/18 A3005 RMK A01 T03130175  RH  043%=      5-min Rain = 0
KST3 042119Z 12012KT 31/18 A3005 RMK A01 T03140177  RH  044%=      5-min Rain = 0
KST3 042120Z 13013KT 31/18 A3005 RMK A01 T03140176  RH  044%=      5-min Rain = 0
KST3 042121Z 12011KT 31/18 A3005 RMK A01 T03140176  RH  044%=      5-min Rain = 0
KST3 042122Z 12010KT 32/18 A3005 RMK A01 T03160176  RH  043%=      5-min Rain = 0
KST3 042123Z 11012KT 32/18 A3005 RMK A01 T03210177  RH  042%=      5-min Rain = 0
KST3 042124Z 10009G15KT 32/18 A3005 RMK A01 T03230176  RH  042%=      5-min Rain = 0
KST3 042125Z 10013KT 32/18 A3005 RMK A01 T03240177  RH  041%=      5-min Rain = 0
KST3 042126Z 10010KT 33/18 A3005 RMK A01 T03270175  RH  041%=      5-min Rain = 0
KST3 042127Z 09008KT 32/17 A3005 RMK A01 T03240174  RH  041%=      5-min Rain = 0
KST3 042128Z 06007KT 32/18 A3005 RMK A01 T03180175  RH  042%=      5-min Rain = 0
KST3 042129Z 05009KT 32/17 A3004 RMK A01 T03160174  RH  043%=      5-min Rain = 0
KST3 042130Z 08006KT 32/17 A3004 RMK A01 T03160174  RH  043%=      5-min Rain = 0
KST3 042131Z 12011KT 32/18 A3005 RMK A01 T03160175  RH  043%=      5-min Rain = 0
KST3 042132Z 12010KT 32/18 A3005 RMK A01 T03180176  RH  043%=      5-min Rain = 0
KST3 042133Z 12011G16KT 32/18 A3004 RMK A01 T03170175  RH  043%=      5-min Rain = 0
KST3 042134Z 11010KT 31/18 A3004 RMK A01 T03140176  RH  044%=      5-min Rain = 0
KST3 042135Z 11011KT 31/18 A3004 RMK A01 T03140176  RH  044%=      5-min Rain = 0
KST3 042136Z 10013KT 32/18 A3004 RMK A01 T03180177  RH  043%=      5-min Rain = 0
KST3 042137Z 11013KT 32/18 A3004 RMK A01 T03210177  RH  042%=      5-min Rain = 0
KST3 042138Z 10013KT 32/18 A3004 RMK A01 T03240176  RH  041%=      5-min Rain = 0
KST3 042139Z 09011KT 33/18 A3004 RMK A01 T03270176  RH  041%=      5-min Rain = 0
KST3 042140Z 10014KT 33/18 A3004 RMK A01 T03290175  RH  040%=      5-min Rain = 0
KST3 042141Z 11011KT 33/18 A3004 RMK A01 T03260175  RH  041%=      5-min Rain = 0
KST3 042142Z 11011KT 32/18 A3004 RMK A01 T03230175  RH  041%=      5-min Rain = 0
KST3 042143Z 11010G15KT 32/18 A3004 RMK A01 T03210176  RH  042%=      5-min Rain = 0
KST3 042144Z 10014KT 32/18 A3004 RMK A01 T03210176  RH  042%=      5-min Rain = 0
KST3 042145Z 10013KT 32/18 A3004 RMK A01 T03200175  RH  042%=      5-min Rain = 0
KST3 042146Z 10014KT 32/18 A3004 RMK A01 T03170177  RH  043%=      5-min Rain = 0
KST3 042147Z 10015KT 32/18 A3004 RMK A01 T03180176  RH  043%=      5-min Rain = 0
KST3 042148Z 11011KT 32/18 A3004 RMK A01 T03170175  RH  043%=      5-min Rain = 0
KST3 042149Z 10011KT 31/18 A3004 RMK A01 T03140175  RH  043%=      5-min Rain = 0
KST3 042150Z 11013G19KT 32/18 A3004 RMK A01 T03150176  RH  043%=      5-min Rain = 0
KST3 042151Z 11018KT 32/17 A3004 RMK A01 T03190174  RH  042%=      5-min Rain = 0
KST3 042152Z 11015KT 32/17 A3004 RMK A01 T03170172  RH  042%=      5-min Rain = 0
KST3 042153Z 13015G20KT 31/17 A3004 RMK A01 T03140171  RH  042%=      5-min Rain = 0
KST3 042154Z 13016KT 31/17 A3004 RMK A01 T03110170  RH  043%=      5-min Rain = 0
KST3 042155Z 13014KT 31/17 A3004 RMK A01 T03080170  RH  044%=      5-min Rain = 0
KST3 042156Z 12015KT 31/17 A3004 RMK A01 T03070171  RH  044%=      5-min Rain = 0
KST3 042157Z 11015G21KT 31/17 A3004 RMK A01 T03080172  RH  044%=      5-min Rain = 0
KST3 042158Z 12014G19KT 31/17 A3004 RMK A01 T03070172  RH  044%=      5-min Rain = 0
KST3 042159Z 13015KT 31/17 A3004 RMK A01 T03080171  RH  044%=      5-min Rain = 0
KST3 042200Z 13014G19KT 31/17 A3004 RMK A01 T03070172  RH  044%=      5-min Rain = 0
KST3 042201Z 12012KT 31/17 A3003 RMK A01 T03070171  RH  044%=      5-min Rain = 0
KST3 042202Z 12011KT 31/17 A3004 RMK A01 T03090173  RH  044%=      5-min Rain = 0
KST3 042203Z 11011KT 31/17 A3004 RMK A01 T03120174  RH  044%=      5-min Rain = 0
KST3 042204Z 11011KT 31/17 A3004 RMK A01 T03140174  RH  043%=      5-min Rain = 0
KST3 042205Z 12011KT 32/18 A3003 RMK A01 T03170176  RH  043%=      5-min Rain = 0
KST3 042206Z 11015KT 32/17 A3004 RMK A01 T03180174  RH  042%=      5-min Rain = 0
KST3 042207Z 11013KT 31/17 A3004 RMK A01 T03140172  RH  043%=      5-min Rain = 0
KST3 042208Z 13011KT 31/17 A3003 RMK A01 T03100173  RH  044%=      5-min Rain = 0
KST3 042209Z 13012G17KT 31/17 A3003 RMK A01 T03100173  RH  044%=      5-min Rain = 0
KST3 042210Z 12014KT 31/17 A3003 RMK A01 T03100172  RH  044%=      5-min Rain = 0
KST3 042211Z 11015KT 31/17 A3003 RMK A01 T03110173  RH  044%=      5-min Rain = 0
KST3 042212Z 11013KT 31/17 A3003 RMK A01 T03140173  RH  043%=      5-min Rain = 0
KST3 042213Z 11014KT 32/17 A3003 RMK A01 T03160173  RH  042%=      5-min Rain = 0
KST3 042214Z 11011KT 32/17 A3003 RMK A01 T03170173  RH  042%=      5-min Rain = 0
KST3 042215Z 12012G17KT 32/18 A3003 RMK A01 T03190175  RH  042%=      5-min Rain = 0
KST3 042216Z 11013KT 32/17 A3003 RMK A01 T03220173  RH  041%=      5-min Rain = 0
KST3 042217Z 11016KT 32/17 A3003 RMK A01 T03210173  RH  041%=      5-min Rain = 0
KST3 042218Z 10016KT 32/17 A3003 RMK A01 T03210172  RH  041%=      5-min Rain = 0
KST3 042219Z 12017KT 32/17 A3003 RMK A01 T03200173  RH  041%=      5-min Rain = 0
KST3 042220Z 13014KT 32/17 A3003 RMK A01 T03200172  RH  041%=      5-min Rain = 0
KST3 042221Z 14012KT 32/17 A3003 RMK A01 T03190172  RH  042%=      5-min Rain = 0
KST3 042222Z 15012KT 32/17 A3003 RMK A01 T03190172  RH  041%=      5-min Rain = 0
KST3 042223Z 13014KT 32/17 A3003 RMK A01 T03190172  RH  041%=      5-min Rain = 0
KST3 042224Z 13015KT 32/17 A3003 RMK A01 T03190172  RH  041%=      5-min Rain = 0
KST3 042225Z 12014KT 32/17 A3003 RMK A01 T03190171  RH  041%=      5-min Rain = 0
KST3 042226Z 10011KT 32/17 A3003 RMK A01 T03170170  RH  041%=      5-min Rain = 0
KST3 042227Z 12014KT 32/17 A3003 RMK A01 T03180171  RH  041%=      5-min Rain = 0
KST3 042228Z 12014KT 32/17 A3003 RMK A01 T03180171  RH  041%=      5-min Rain = 0
KST3 042229Z 11014KT 32/17 A3003 RMK A01 T03180171  RH  041%=      5-min Rain = 0
KST3 042230Z 11016G23KT 32/17 A3003 RMK A01 T03220173  RH  041%=      5-min Rain = 0
KST3 042231Z 10014KT 33/17 A3003 RMK A01 T03260172  RH  040%=      5-min Rain = 0
KST3 042232Z 10013KT 33/17 A3003 RMK A01 T03250172  RH  040%=      5-min Rain = 0
KST3 042233Z 10012KT 33/17 A3003 RMK A01 T03250172  RH  040%=      5-min Rain = 0
KST3 042234Z 11013KT 33/17 A3003 RMK A01 T03250172  RH  040%=      5-min Rain = 0
KST3 042235Z 10013KT 33/17 A3003 RMK A01 T03260172  RH  040%=      5-min Rain = 0
KST3 042236Z 11010KT 33/17 A3003 RMK A01 T03250172  RH  040%=      5-min Rain = 0
KST3 042237Z 12010KT 33/17 A3003 RMK A01 T03250172  RH  040%=      5-min Rain = 0
KST3 042238Z 10011KT 33/17 A3003 RMK A01 T03270172  RH  040%=      5-min Rain = 0
KST3 042239Z 10013G18KT 33/17 A3003 RMK A01 T03280172  RH  039%=      5-min Rain = 0
KST3 042240Z 11014KT 33/17 A3002 RMK A01 T03260171  RH  040%=      5-min Rain = 0
KST3 042241Z 11013KT 32/17 A3003 RMK A01 T03240171  RH  040%=      5-min Rain = 0
KST3 042242Z 11013KT 32/17 A3002 RMK A01 T03220172  RH  041%=      5-min Rain = 0
KST3 042243Z 11013KT 32/17 A3002 RMK A01 T03220171  RH  040%=      5-min Rain = 0
KST3 042244Z 11014KT 32/17 A3003 RMK A01 T03240170  RH  040%=      5-min Rain = 0
KST3 042245Z 11013KT 32/17 A3002 RMK A01 T03240169  RH  040%=      5-min Rain = 0
KST3 042246Z 11011KT 32/17 A3002 RMK A01 T03230169  RH  040%=      5-min Rain = 0
KST3 042247Z 09010KT 32/17 A3002 RMK A01 T03220168  RH  040%=      5-min Rain = 0
KST3 042248Z 11009KT 32/17 A3002 RMK A01 T03220169  RH  040%=      5-min Rain = 0
KST3 042249Z 11012KT 32/17 A3002 RMK A01 T03210169  RH  040%=      5-min Rain = 0
KST3 042250Z 11013KT 32/17 A3002 RMK A01 T03210171  RH  041%=      5-min Rain = 0
KST3 042251Z 10012KT 32/17 A3002 RMK A01 T03190171  RH  041%=      5-min Rain = 0
KST3 042252Z 11009KT 32/17 A3002 RMK A01 T03170172  RH  042%=      5-min Rain = 0
KST3 042253Z 10012KT 32/17 A3002 RMK A01 T03220171  RH  041%=      5-min Rain = 0
KST3 042254Z 09010KT 32/17 A3002 RMK A01 T03230172  RH  040%=      5-min Rain = 0
KST3 042255Z 09009KT 32/17 A3002 RMK A01 T03220172  RH  041%=      5-min Rain = 0
KST3 042256Z 10011G17KT 32/17 A3002 RMK A01 T03170171  RH  042%=      5-min Rain = 0
KST3 042257Z 09012KT 32/17 A3002 RMK A01 T03160172  RH  042%=      5-min Rain = 0
KST3 042258Z 09013KT 32/17 A3002 RMK A01 T03150172  RH  042%=      5-min Rain = 0
KST3 042259Z 09011KT 32/17 A3002 RMK A01 T03160171  RH  042%=      5-min Rain = 0
KST3 042300Z 10014KT 32/17 A3002 RMK A01 T03190171  RH  041%=      5-min Rain = 0
KST3 042301Z 08010KT 32/17 A3002 RMK A01 T03190172  RH  041%=      5-min Rain = 0
KST3 042302Z 09011KT 32/17 A3002 RMK A01 T03200171  RH  041%=      5-min Rain = 0
KST3 042303Z 08010KT 32/17 A3002 RMK A01 T03190171  RH  041%=      5-min Rain = 0
KST3 042304Z 08013KT 32/17 A3002 RMK A01 T03180171  RH  041%=      5-min Rain = 0
KST3 042305Z 09009KT 32/17 A3002 RMK A01 T03180172  RH  042%=      5-min Rain = 0
KST3 042306Z 10012KT 32/17 A3002 RMK A01 T03220173  RH  041%=      5-min Rain = 0
KST3 042307Z 10012KT 33/17 A3002 RMK A01 T03260173  RH  040%=      5-min Rain = 0
KST3 042308Z 10012KT 33/17 A3002 RMK A01 T03260171  RH  040%=      5-min Rain = 0
KST3 042309Z 10011KT 32/17 A3002 RMK A01 T03200170  RH  041%=      5-min Rain = 0
KST3 042310Z 09012KT 32/17 A3002 RMK A01 T03190171  RH  041%=      5-min Rain = 0
KST3 042311Z 10012G17KT 32/17 A3002 RMK A01 T03190172  RH  041%=      5-min Rain = 0
KST3 042312Z 10012KT 32/17 A3002 RMK A01 T03220173  RH  041%=      5-min Rain = 0
KST3 042313Z 10012KT 32/17 A3002 RMK A01 T03230173  RH  041%=      5-min Rain = 0
KST3 042314Z 11010KT 32/17 A3002 RMK A01 T03230173  RH  041%=      5-min Rain = 0
KST3 042315Z 11011KT 32/17 A3002 RMK A01 T03240172  RH  040%=      5-min Rain = 0
KST3 042316Z 10010KT 32/17 A3002 RMK A01 T03200171  RH  041%=      5-min Rain = 0
KST3 042317Z 08010G16KT 32/17 A3002 RMK A01 T03180173  RH  042%=      5-min Rain = 0
KST3 042318Z 07011KT 32/17 A3001 RMK A01 T03170172  RH  042%=      5-min Rain = 0
KST3 042319Z 08014KT 32/17 A3001 RMK A01 T03170172  RH  042%=      5-min Rain = 0
KST3 042320Z 08011KT 32/17 A3001 RMK A01 T03180171  RH  042%=      5-min Rain = 0
KST3 042321Z 08011G16KT 32/17 A3001 RMK A01 T03170172  RH  042%=      5-min Rain = 0
KST3 042322Z 09015KT 32/17 A3001 RMK A01 T03170172  RH  042%=      5-min Rain = 0
KST3 042323Z 10014KT 32/17 A3001 RMK A01 T03160170  RH  042%=      5-min Rain = 0
KST3 042324Z 10015KT 31/17 A3001 RMK A01 T03140169  RH  042%=      5-min Rain = 0
KST3 042325Z 11015KT 31/17 A3001 RMK A01 T03140169  RH  042%=      5-min Rain = 0
KST3 042326Z 11014KT 32/17 A3001 RMK A01 T03150167  RH  041%=      5-min Rain = 0
KST3 042327Z 10012KT 31/17 A3001 RMK A01 T03140168  RH  041%=      5-min Rain = 0
KST3 042328Z 10015KT 31/17 A3001 RMK A01 T03140167  RH  041%=      5-min Rain = 0
KST3 042329Z 10012KT 31/17 A3001 RMK A01 T03130166  RH  041%=      5-min Rain = 0
KST3 042330Z 09010KT 31/17 A3001 RMK A01 T03120166  RH  042%=      5-min Rain = 0
KST3 042331Z 09014KT 31/17 A3001 RMK A01 T03130167  RH  042%=      5-min Rain = 0
KST3 042332Z 10012KT 31/17 A3001 RMK A01 T03130166  RH  041%=      5-min Rain = 0
KST3 042333Z 09010KT 31/17 A3001 RMK A01 T03120166  RH  042%=      5-min Rain = 0
KST3 042334Z 09013KT 31/17 A3001 RMK A01 T03100166  RH  042%=      5-min Rain = 0
KST3 042335Z 10014KT 31/17 A3001 RMK A01 T03090166  RH  042%=      5-min Rain = 0
KST3 042336Z 11012KT 31/17 A3001 RMK A01 T03090167  RH  042%=      5-min Rain = 0
KST3 042337Z 10013KT 31/17 A3001 RMK A01 T03100166  RH  042%=      5-min Rain = 0
KST3 042338Z 11011KT 31/17 A3001 RMK A01 T03100165  RH  042%=      5-min Rain = 0
KST3 042339Z 10010KT 31/17 A3001 RMK A01 T03110166  RH  042%=      5-min Rain = 0
KST3 042340Z 08010KT 31/17 A3001 RMK A01 T03140167  RH  041%=      5-min Rain = 0
KST3 042341Z 10011KT 32/17 A3001 RMK A01 T03160168  RH  041%=      5-min Rain = 0
KST3 042342Z 11012KT 32/17 A3001 RMK A01 T03170167  RH  041%=      5-min Rain = 0
KST3 042343Z 10010KT 32/17 A3001 RMK A01 T03190168  RH  041%=      5-min Rain = 0
KST3 042344Z 11011KT 32/17 A3001 RMK A01 T03220170  RH  040%=      5-min Rain = 0
KST3 042345Z 11012KT 32/17 A3001 RMK A01 T03240169  RH  040%=      5-min Rain = 0
KST3 042346Z 10014KT 32/17 A3001 RMK A01 T03240167  RH  039%=      5-min Rain = 0
KST3 042347Z 10013KT 32/17 A30 RMK A01 T03230166  RH  039%=      5-min Rain = 0
KST3 042348Z 10012KT 32/17 A30 RMK A01 T03200165  RH  039%=      5-min Rain = 0
KST3 042349Z 09015KT 32/17 A30 RMK A01 T03190167  RH  040%=      5-min Rain = 0
KST3 042350Z 09016KT 32/17 A30 RMK A01 T03180169  RH  041%=      5-min Rain = 0
KST3 042351Z 10015KT 32/17 A30 RMK A01 T03170169  RH  041%=      5-min Rain = 0
KST3 042352Z 10013KT 32/17 A30 RMK A01 T03160168  RH  041%=      5-min Rain = 0
KST3 042353Z 10013KT 31/17 A30 RMK A01 T03140169  RH  042%=      5-min Rain = 0
KST3 042354Z 10012KT 31/17 A30 RMK A01 T03140170  RH  042%=      5-min Rain = 0
KST3 042355Z 10016KT 31/17 A30 RMK A01 T03140170  RH  042%=      5-min Rain = 0
KST3 042356Z 09013G19KT 31/17 A30 RMK A01 T03140169  RH  042%=      5-min Rain = 0
KST3 042357Z 08012KT 31/17 A30 RMK A01 T03140169  RH  042%=      5-min Rain = 0
KST3 042358Z 09012G24KT 31/17 A30 RMK A01 T03140169  RH  042%=      5-min Rain = 0
KST3 042359Z 10014G20KT 31/17 A30 RMK A01 T03140168  RH  042%=      5-min Rain = 0
KST3 050000Z 10011KT 32/17 A30 RMK A01 T03150168  RH  041%=      5-min Rain = 0
KST3 050001Z 10013KT 32/17 A30 RMK A01 T03150168  RH  041%=      5-min Rain = 0
KST3 050002Z 08014KT 32/17 A30 RMK A01 T03160168  RH  041%=      5-min Rain = 0
KST3 050003Z 10015KT 32/17 A30 RMK A01 T03160168  RH  041%=      5-min Rain = 0
KST3 050004Z 08013KT 31/17 A30 RMK A01 T03130167  RH  041%=      5-min Rain = 0
KST3 050005Z 09014KT 31/17 A30 RMK A01 T03120167  RH  042%=      5-min Rain = 0
KST3 050006Z 09014KT 31/17 A30 RMK A01 T03120167  RH  042%=      5-min Rain = 0
KST3 050007Z 08010KT 31/17 A30 RMK A01 T03120167  RH  042%=      5-min Rain = 0
KST3 050008Z 09012KT 31/17 A30 RMK A01 T03130167  RH  042%=      5-min Rain = 0
KST3 050009Z 09011KT 31/17 A30 RMK A01 T03130167  RH  042%=      5-min Rain = 0
KST3 050010Z 09014KT 31/17 A30 RMK A01 T03130167  RH  041%=      5-min Rain = 0
KST3 050011Z 10013KT 31/17 A30 RMK A01 T03130167  RH  041%=      5-min Rain = 0
KST3 050012Z 11013KT 31/17 A30 RMK A01 T03140166  RH  041%=      5-min Rain = 0
KST3 050013Z 10014KT 32/17 A30 RMK A01 T03150165  RH  041%=      5-min Rain = 0
KST3 050014Z 09012KT 32/17 A30 RMK A01 T03150166  RH  041%=      5-min Rain = 0
KST3 050015Z 10011KT 32/17 A30 RMK A01 T03150166  RH  041%=      5-min Rain = 0
KST3 050016Z 09011KT 32/17 A30 RMK A01 T03150166  RH  041%=      5-min Rain = 0
KST3 050017Z 08013KT 32/17 A30 RMK A01 T03160166  RH  040%=      5-min Rain = 0
KST3 050018Z 09011KT 32/17 A30 RMK A01 T03160166  RH  041%=      5-min Rain = 0
KST3 050019Z 08012KT 32/17 A30 RMK A01 T03150166  RH  041%=      5-min Rain = 0
KST3 050020Z 08013KT 31/17 A30 RMK A01 T03140166  RH  041%=      5-min Rain = 0
KST3 050021Z 09013KT 31/17 A30 RMK A01 T03140166  RH  041%=      5-min Rain = 0
KST3 050022Z 09015KT 32/17 A30 RMK A01 T03150166  RH  041%=      5-min Rain = 0
KST3 050023Z 10012KT 31/17 A30 RMK A01 T03140166  RH  041%=      5-min Rain = 0
KST3 050024Z 10009KT 32/17 A30 RMK A01 T03150166  RH  041%=      5-min Rain = 0
KST3 050025Z 09010KT 32/17 A30 RMK A01 T03160166  RH  041%=      5-min Rain = 0
KST3 050026Z 09010KT 32/17 A30 RMK A01 T03150166  RH  041%=      5-min Rain = 0
KST3 050027Z 10012KT 31/17 A30 RMK A01 T03140166  RH  041%=      5-min Rain = 0
KST3 050028Z 09012KT 31/17 A30 RMK A01 T03140166  RH  041%=      5-min Rain = 0
KST3 050029Z 10012KT 31/17 A30 RMK A01 T03130166  RH  041%=      5-min Rain = 0
KST3 050030Z 10009KT 31/17 A30 RMK A01 T03120166  RH  041%=      5-min Rain = 0
KST3 050031Z 09010KT 31/17 A30 RMK A01 T03130166  RH  041%=      5-min Rain = 0
KST3 050032Z 09008KT 31/17 A30 RMK A01 T03140166  RH  041%=      5-min Rain = 0
KST3 050033Z 09011KT 32/17 A30 RMK A01 T03150166  RH  041%=      5-min Rain = 0
KST3 050034Z 08010KT 32/17 A3001 RMK A01 T03160166  RH  041%=      5-min Rain = 0
KST3 050035Z 10013KT 32/17 A3001 RMK A01 T03160166  RH  041%=      5-min Rain = 0
KST3 050036Z 10014KT 32/17 A3001 RMK A01 T03160167  RH  041%=      5-min Rain = 0
KST3 050037Z 10015KT 32/17 A3001 RMK A01 T03160166  RH  041%=      5-min Rain = 0
KST3 050038Z 10016KT 31/17 A3001 RMK A01 T03140165  RH  041%=      5-min Rain = 0
KST3 050039Z 10013KT 31/17 A3001 RMK A01 T03130166  RH  041%=      5-min Rain = 0
KST3 050040Z 10014KT 31/17 A3001 RMK A01 T03130166  RH  041%=      5-min Rain = 0
KST3 050041Z 10015KT 31/17 A3001 RMK A01 T03130166  RH  041%=      5-min Rain = 0
KST3 050042Z 11015KT 31/17 A3001 RMK A01 T03120165  RH  041%=      5-min Rain = 0
KST3 050043Z 10015KT 31/16 A3001 RMK A01 T03100164  RH  041%=      5-min Rain = 0
KST3 050044Z 10013KT 31/16 A3001 RMK A01 T03090163  RH  042%=      5-min Rain = 0
KST3 050045Z 10013KT 31/16 A3001 RMK A01 T03080164  RH  042%=      5-min Rain = 0
KST3 050046Z 11015KT 31/16 A3001 RMK A01 T03080163  RH  042%=      5-min Rain = 0
KST3 050047Z 10014KT 31/16 A3001 RMK A01 T03070163  RH  042%=      5-min Rain = 0
KST3 050048Z 10012KT 31/16 A3001 RMK A01 T03070163  RH  042%=      5-min Rain = 0
KST3 050049Z 11013KT 31/16 A3001 RMK A01 T03070163  RH  042%=      5-min Rain = 0
KST3 050050Z 10015KT 31/16 A3001 RMK A01 T03070163  RH  042%=      5-min Rain = 0
KST3 050051Z 10013KT 31/16 A3001 RMK A01 T03060162  RH  042%=      5-min Rain = 0
KST3 050052Z 10011KT 31/16 A3001 RMK A01 T03060163  RH  042%=      5-min Rain = 0
KST3 050053Z 10011KT 31/16 A3001 RMK A01 T03060163  RH  042%=      5-min Rain = 0
KST3 050054Z 11013KT 31/16 A3001 RMK A01 T03060163  RH  042%=      5-min Rain = 0
KST3 050055Z 11013KT 31/16 A3001 RMK A01 T03060163  RH  042%=      5-min Rain = 0
KST3 050056Z 10011KT 30/16 A3001 RMK A01 T03040163  RH  043%=      5-min Rain = 0
KST3 050057Z 10013KT 30/16 A3001 RMK A01 T03040163  RH  043%=      5-min Rain = 0
KST3 050058Z 11012KT 30/16 A3001 RMK A01 T03030163  RH  043%=      5-min Rain = 0
KST3 050059Z 11012KT 30/16 A3001 RMK A01 T03020163  RH  043%=      5-min Rain = 0
KST3 050100Z 10010KT 30/16 A3001 RMK A01 T03020163  RH  043%=      5-min Rain = 0
KST3 050101Z 10009KT 30/16 A3001 RMK A01 T03010164  RH  043%=      5-min Rain = 0
KST3 050102Z 10009KT 30/16 A3002 RMK A01 T03010163  RH  043%=      5-min Rain = 0
KST3 050103Z 11010KT 30/16 A3002 RMK A01 T03010163  RH  043%=      5-min Rain = 0
KST3 050104Z 12011KT 30/16 A3002 RMK A01 T03010162  RH  043%=      5-min Rain = 0
KST3 050105Z 11009KT 30/16 A3002 RMK A01 T03010163  RH  043%=      5-min Rain = 0
KST3 050106Z 11011KT 30/16 A3002 RMK A01 T03010162  RH  043%=      5-min Rain = 0
KST3 050107Z 12014KT 30/16 A3002 RMK A01 T03010164  RH  044%=      5-min Rain = 0
KST3 050108Z 14011KT 30/17 A3002 RMK A01 T03000165  RH  044%=      5-min Rain = 0
KST3 050109Z 14010KT 30/17 A3002 RMK A01 T02990166  RH  045%=      5-min Rain = 0
KST3 050110Z 14010KT 30/17 A3002 RMK A01 T02980166  RH  045%=      5-min Rain = 0
KST3 050111Z 14013KT 30/17 A3002 RMK A01 T02980166  RH  045%=      5-min Rain = 0
KST3 050112Z 14013KT 30/17 A3002 RMK A01 T02970165  RH  045%=      5-min Rain = 0
KST3 050113Z 14011KT 30/17 A3002 RMK A01 T02960165  RH  045%=      5-min Rain = 0
KST3 050114Z 13011KT 30/17 A3002 RMK A01 T02950165  RH  045%=      5-min Rain = 0
KST3 050115Z 13011G16KT 29/17 A3002 RMK A01 T02940165  RH  045%=      5-min Rain = 0
KST3 050116Z 14010KT 29/17 A3002 RMK A01 T02940165  RH  046%=      5-min Rain = 0
KST3 050117Z 13010KT 29/17 A3002 RMK A01 T02940165  RH  046%=      5-min Rain = 0
KST3 050118Z 14009KT 29/16 A3002 RMK A01 T02930164  RH  046%=      5-min Rain = 0
KST3 050119Z 13008G13KT 29/16 A3002 RMK A01 T02930164  RH  046%=      5-min Rain = 0
KST3 050120Z 14013KT 29/17 A3002 RMK A01 T02920167  RH  047%=      5-min Rain = 0
KST3 050121Z 15012KT 29/17 A3002 RMK A01 T02910171  RH  048%=      5-min Rain = 0
KST3 050122Z 15013KT 29/18 A3002 RMK A01 T02900175  RH  050%=      5-min Rain = 0
KST3 050123Z 15012G17KT 29/18 A3002 RMK A01 T02880177  RH  051%=      5-min Rain = 0
KST3 050124Z 15014KT 29/18 A3002 RMK A01 T02870177  RH  051%=      5-min Rain = 0
KST3 050125Z 14012KT 29/18 A3002 RMK A01 T02860177  RH  052%=      5-min Rain = 0
KST3 050126Z 15011KT 29/18 A3002 RMK A01 T02850177  RH  052%=      5-min Rain = 0
KST3 050127Z 14010KT 29/18 A3002 RMK A01 T02850177  RH  052%=      5-min Rain = 0
KST3 050128Z 14011KT 28/18 A3002 RMK A01 T02840178  RH  052%=      5-min Rain = 0
KST3 050129Z 14009KT 28/18 A3003 RMK A01 T02840177  RH  052%=      5-min Rain = 0
KST3 050130Z 14009KT 28/18 A3003 RMK A01 T02840178  RH  052%=      5-min Rain = 0
KST3 050131Z 13010KT 28/18 A3003 RMK A01 T02840178  RH  052%=      5-min Rain = 0
KST3 050132Z 14006KT 28/18 A3003 RMK A01 T02840178  RH  053%=      5-min Rain = 0
KST3 050133Z 14008KT 28/18 A3003 RMK A01 T02830178  RH  053%=      5-min Rain = 0
KST3 050134Z 14008KT 28/18 A3003 RMK A01 T02830178  RH  053%=      5-min Rain = 0
KST3 050135Z 15009KT 28/18 A3003 RMK A01 T02820178  RH  053%=      5-min Rain = 0
KST3 050136Z 15008KT 28/18 A3002 RMK A01 T02820178  RH  053%=      5-min Rain = 0
KST3 050137Z 15010KT 28/18 A3002 RMK A01 T02820177  RH  053%=      5-min Rain = 0
KST3 050138Z 15009KT 28/18 A3002 RMK A01 T02820178  RH  053%=      5-min Rain = 0
KST3 050139Z 14009KT 28/18 A3002 RMK A01 T02810177  RH  053%=      5-min Rain = 0
KST3 050140Z 14010KT 28/18 A3002 RMK A01 T02810177  RH  053%=      5-min Rain = 0
KST3 050141Z 13010KT 28/18 A3002 RMK A01 T02810177  RH  053%=      5-min Rain = 0
KST3 050142Z 14011KT 28/18 A3002 RMK A01 T02810176  RH  053%=      5-min Rain = 0
KST3 050143Z 14009KT 28/18 A3002 RMK A01 T02810176  RH  053%=      5-min Rain = 0
KST3 050144Z 14010KT 28/18 A3002 RMK A01 T02810176  RH  053%=      5-min Rain = 0
KST3 050145Z 14008KT 28/18 A3002 RMK A01 T02810176  RH  053%=      5-min Rain = 0
KST3 050146Z 14009KT 28/18 A3002 RMK A01 T02800176  RH  053%=      5-min Rain = 0
KST3 050147Z 14009KT 28/18 A3002 RMK A01 T02810176  RH  053%=      5-min Rain = 0
KST3 050148Z 13007KT 28/18 A3002 RMK A01 T02800175  RH  053%=      5-min Rain = 0
KST3 050149Z 14005KT 28/18 A3002 RMK A01 T02800176  RH  053%=      5-min Rain = 0
KST3 050150Z 14006KT 28/18 A3002 RMK A01 T02800175  RH  053%=      5-min Rain = 0
KST3 050151Z 14008G13KT 28/18 A3002 RMK A01 T02790175  RH  053%=      5-min Rain = 0
KST3 050152Z 14010KT 28/18 A3002 RMK A01 T02790175  RH  053%=      5-min Rain = 0
KST3 050153Z 14011KT 28/18 A3002 RMK A01 T02790175  RH  053%=      5-min Rain = 0
KST3 050154Z 14010KT 28/18 A3002 RMK A01 T02790175  RH  053%=      5-min Rain = 0
KST3 050155Z 13008KT 28/18 A3002 RMK A01 T02790175  RH  053%=      5-min Rain = 0
KST3 050156Z 13009KT 28/18 A3002 RMK A01 T02790175  RH  053%=      5-min Rain = 0
KST3 050157Z 13009KT 28/18 A3002 RMK A01 T02790175  RH  053%=      5-min Rain = 0
KST3 050158Z 13008KT 28/18 A3002 RMK A01 T02780175  RH  053%=      5-min Rain = 0
KST3 050159Z 13009KT 28/18 A3002 RMK A01 T02780175  RH  053%=      5-min Rain = 0
KST3 050200Z 13011KT 28/17 A3002 RMK A01 T02770174  RH  054%=      5-min Rain = 0
KST3 050201Z 14009KT 28/17 A3002 RMK A01 T02770174  RH  053%=      5-min Rain = 0
KST3 050202Z 13010KT 28/17 A3002 RMK A01 T02770174  RH  053%=      5-min Rain = 0
KST3 050203Z 13011KT 28/17 A3002 RMK A01 T02770174  RH  053%=      5-min Rain = 0
KST3 050204Z 13010KT 28/17 A3002 RMK A01 T02770173  RH  053%=      5-min Rain = 0
KST3 050205Z 13009KT 28/17 A3002 RMK A01 T02770173  RH  053%=      5-min Rain = 0
KST3 050206Z 13009KT 28/17 A3002 RMK A01 T02770173  RH  053%=      5-min Rain = 0
KST3 050207Z 13008KT 28/17 A3002 RMK A01 T02770173  RH  053%=      5-min Rain = 0
KST3 050208Z 13009KT 28/17 A3002 RMK A01 T02770173  RH  053%=      5-min Rain = 0
KST3 050209Z 13009KT 28/17 A3002 RMK A01 T02760173  RH  053%=      5-min Rain = 0
KST3 050210Z 13008KT 28/17 A3002 RMK A01 T02760173  RH  053%=      5-min Rain = 0
KST3 050211Z 12008KT 28/17 A3002 RMK A01 T02760173  RH  054%=      5-min Rain = 0
KST3 050212Z 12009KT 28/17 A3002 RMK A01 T02750173  RH  054%=      5-min Rain = 0
KST3 050213Z 13008KT 28/17 A3002 RMK A01 T02750174  RH  054%=      5-min Rain = 0
KST3 050214Z 13009KT 27/17 A3002 RMK A01 T02740173  RH  054%=      5-min Rain = 0
KST3 050215Z 13007KT 27/17 A3003 RMK A01 T02740174  RH  054%=      5-min Rain = 0
KST3 050216Z 13008KT 27/17 A3003 RMK A01 T02730173  RH  055%=      5-min Rain = 0
KST3 050217Z 14008KT 27/17 A3003 RMK A01 T02730174  RH  055%=      5-min Rain = 0
KST3 050218Z 14008KT 27/17 A3003 RMK A01 T02730174  RH  055%=      5-min Rain = 0
KST3 050219Z 15008KT 27/17 A3003 RMK A01 T02720174  RH  055%=      5-min Rain = 0
KST3 050220Z 14007KT 27/17 A3003 RMK A01 T02720174  RH  055%=      5-min Rain = 0
KST3 050221Z 14008KT 27/17 A3003 RMK A01 T02720174  RH  055%=      5-min Rain = 0
KST3 050222Z 14010KT 27/17 A3003 RMK A01 T02720174  RH  055%=      5-min Rain = 0
KST3 050223Z 14009KT 27/18 A3003 RMK A01 T02720175  RH  055%=      5-min Rain = 0
KST3 050224Z 13008KT 27/17 A3003 RMK A01 T02720174  RH  055%=      5-min Rain = 0
KST3 050225Z 13008KT 27/18 A3003 RMK A01 T02720175  RH  055%=      5-min Rain = 0
KST3 050226Z 13008KT 27/18 A3003 RMK A01 T02720175  RH  055%=      5-min Rain = 0
KST3 050227Z 14007KT 27/18 A3003 RMK A01 T02720175  RH  055%=      5-min Rain = 0
KST3 050228Z 13007KT 27/18 A3003 RMK A01 T02710175  RH  056%=      5-min Rain = 0
KST3 050229Z 13007KT 27/18 A3003 RMK A01 T02700175  RH  056%=      5-min Rain = 0
KST3 050230Z 14007KT 27/18 A3003 RMK A01 T02700175  RH  056%=      5-min Rain = 0
KST3 050231Z 14007KT 27/18 A3003 RMK A01 T02700175  RH  056%=      5-min Rain = 0
KST3 050232Z 14007KT 27/18 A3003 RMK A01 T02690175  RH  056%=      5-min Rain = 0
KST3 050233Z 14006KT 27/18 A3003 RMK A01 T02680175  RH  057%=      5-min Rain = 0
KST3 050234Z 14006KT 27/18 A3004 RMK A01 T02680175  RH  057%=      5-min Rain = 0
KST3 050235Z 14006KT 27/18 A3004 RMK A01 T02670175  RH  057%=      5-min Rain = 0
KST3 050236Z 15006KT 27/18 A3004 RMK A01 T02670175  RH  057%=      5-min Rain = 0
KST3 050237Z 15006KT 27/18 A3004 RMK A01 T02660175  RH  057%=      5-min Rain = 0
KST3 050238Z 15008KT 27/18 A3004 RMK A01 T02660175  RH  057%=      5-min Rain = 0
KST3 050239Z 14006KT 27/18 A3004 RMK A01 T02660175  RH  057%=      5-min Rain = 0
KST3 050240Z 14007KT 27/18 A3004 RMK A01 T02660176  RH  057%=      5-min Rain = 0
KST3 050241Z 14006KT 27/18 A3004 RMK A01 T02660175  RH  058%=      5-min Rain = 0
KST3 050242Z 15007KT 27/18 A3004 RMK A01 T02660176  RH  058%=      5-min Rain = 0
KST3 050243Z 14007G12KT 27/18 A3004 RMK A01 T02660176  RH  058%=      5-min Rain = 0
KST3 050244Z 15009KT 27/18 A3004 RMK A01 T02660176  RH  058%=      5-min Rain = 0
KST3 050245Z 15008KT 27/18 A3004 RMK A01 T02660176  RH  058%=      5-min Rain = 0
KST3 050246Z 15008KT 27/18 A3004 RMK A01 T02670176  RH  057%=      5-min Rain = 0
KST3 050247Z 14008KT 27/18 A3004 RMK A01 T02670176  RH  057%=      5-min Rain = 0
KST3 050248Z 14008KT 27/18 A3004 RMK A01 T02670176  RH  057%=      5-min Rain = 0
KST3 050249Z 14009KT 27/18 A3004 RMK A01 T02660175  RH  057%=      5-min Rain = 0
KST3 050250Z 14008KT 27/18 A3004 RMK A01 T02670176  RH  057%=      5-min Rain = 0
KST3 050251Z 14007KT 27/18 A3004 RMK A01 T02670176  RH  057%=      5-min Rain = 0
KST3 050252Z 14007KT 27/18 A3004 RMK A01 T02660176  RH  057%=      5-min Rain = 0
KST3 050253Z 14007KT 27/18 A3004 RMK A01 T02660176  RH  058%=      5-min Rain = 0
KST3 050254Z 15008KT 27/18 A3004 RMK A01 T02650176  RH  058%=      5-min Rain = 0
KST3 050255Z 15008KT 27/18 A3004 RMK A01 T02650176  RH  058%=      5-min Rain = 0
KST3 050256Z 15008KT 27/18 A3004 RMK A01 T02650175  RH  058%=      5-min Rain = 0
KST3 050257Z 15008KT 27/18 A3004 RMK A01 T02650176  RH  058%=      5-min Rain = 0
KST3 050258Z 15007KT 26/18 A3004 RMK A01 T02640175  RH  058%=      5-min Rain = 0
KST3 050259Z 14007KT 26/18 A3004 RMK A01 T02640175  RH  058%=      5-min Rain = 0
KST3 050300Z 14008KT 26/18 A3004 RMK A01 T02640175  RH  058%=      5-min Rain = 0
KST3 050301Z 14007KT 26/18 A3003 RMK A01 T02640175  RH  058%=      5-min Rain = 0
KST3 050302Z 14008KT 26/18 A3003 RMK A01 T02640175  RH  058%=      5-min Rain = 0
KST3 050303Z 14006KT 26/18 A3003 RMK A01 T02640175  RH  058%=      5-min Rain = 0
KST3 050304Z 14008KT 26/18 A3003 RMK A01 T02630175  RH  058%=      5-min Rain = 0
KST3 050305Z 14007KT 26/18 A3003 RMK A01 T02630175  RH  058%=      5-min Rain = 0
KST3 050306Z 14007KT 26/18 A3003 RMK A01 T02630175  RH  058%=      5-min Rain = 0
KST3 050307Z 14007KT 26/18 A3003 RMK A01 T02630175  RH  058%=      5-min Rain = 0
KST3 050308Z 14008KT 26/18 A3003 RMK A01 T02630175  RH  058%=      5-min Rain = 0
KST3 050309Z 14007KT 26/18 A3003 RMK A01 T02630175  RH  058%=      5-min Rain = 0
KST3 050310Z 14007KT 26/17 A3004 RMK A01 T02630174  RH  058%=      5-min Rain = 0
KST3 050311Z 14006KT 26/17 A3004 RMK A01 T02620174  RH  058%=      5-min Rain = 0
KST3 050312Z 14006KT 26/17 A3004 RMK A01 T02620174  RH  058%=      5-min Rain = 0
KST3 050313Z 14006KT 26/17 A3004 RMK A01 T02620174  RH  058%=      5-min Rain = 0
KST3 050314Z 14007KT 26/17 A3004 RMK A01 T02610173  RH  058%=      5-min Rain = 0
KST3 050315Z 14006KT 26/17 A3004 RMK A01 T02610173  RH  058%=      5-min Rain = 0
KST3 050316Z 15006KT 26/17 A3004 RMK A01 T02610173  RH  058%=      5-min Rain = 0
KST3 050317Z 14006KT 26/17 A3004 RMK A01 T02610173  RH  058%=      5-min Rain = 0
KST3 050318Z 15007KT 26/17 A3004 RMK A01 T02600173  RH  059%=      5-min Rain = 0
KST3 050319Z 14006KT 26/17 A3004 RMK A01 T02600173  RH  058%=      5-min Rain = 0
KST3 050320Z 14007KT 26/17 A3004 RMK A01 T02600172  RH  058%=      5-min Rain = 0
KST3 050321Z 14007KT 26/17 A3004 RMK A01 T02600173  RH  058%=      5-min Rain = 0
KST3 050322Z 14007KT 26/17 A3004 RMK A01 T02600172  RH  058%=      5-min Rain = 0
KST3 050323Z 14006KT 26/17 A3004 RMK A01 T02600172  RH  058%=      5-min Rain = 0
KST3 050324Z 14007KT 26/17 A3004 RMK A01 T02600172  RH  058%=      5-min Rain = 0
KST3 050325Z 13007KT 26/17 A3004 RMK A01 T02600172  RH  058%=      5-min Rain = 0
KST3 050326Z 13007KT 26/17 A3004 RMK A01 T02600172  RH  058%=      5-min Rain = 0
KST3 050327Z 14006KT 26/17 A3004 RMK A01 T02600172  RH  058%=      5-min Rain = 0
KST3 050328Z 14006KT 26/17 A3004 RMK A01 T02600172  RH  058%=      5-min Rain = 0
KST3 050329Z 14006KT 26/17 A3004 RMK A01 T02590171  RH  058%=      5-min Rain = 0
KST3 050330Z 14006KT 26/17 A3004 RMK A01 T02590171  RH  058%=      5-min Rain = 0
KST3 050331Z 14007KT 26/17 A3004 RMK A01 T02590170  RH  058%=      5-min Rain = 0
KST3 050332Z 13005KT 26/17 A3004 RMK A01 T02590170  RH  058%=      5-min Rain = 0
KST3 050333Z 14006KT 26/17 A3004 RMK A01 T02590170  RH  058%=      5-min Rain = 0
KST3 050334Z 14006KT 26/17 A3004 RMK A01 T02590170  RH  058%=      5-min Rain = 0
KST3 050335Z 14006KT 26/17 A3004 RMK A01 T02580170  RH  058%=      5-min Rain = 0
KST3 050336Z 14005KT 26/17 A3004 RMK A01 T02580170  RH  058%=      5-min Rain = 0
KST3 050337Z 14006KT 26/17 A3004 RMK A01 T02580169  RH  058%=      5-min Rain = 0
KST3 050338Z 14006KT 26/17 A3004 RMK A01 T02580169  RH  058%=      5-min Rain = 0
KST3 050339Z 13005KT 26/17 A3004 RMK A01 T02580169  RH  058%=      5-min Rain = 0
KST3 050340Z 13006KT 26/17 A3005 RMK A01 T02580168  RH  057%=      5-min Rain = 0
KST3 050341Z 13006KT 26/17 A3005 RMK A01 T02580168  RH  057%=      5-min Rain = 0
KST3 050342Z 14005KT 26/17 A3005 RMK A01 T02580168  RH  057%=      5-min Rain = 0
KST3 050343Z 14005KT 26/17 A3005 RMK A01 T02580168  RH  057%=      5-min Rain = 0
KST3 050344Z 15004KT 26/17 A3005 RMK A01 T02580168  RH  057%=      5-min Rain = 0
KST3 050345Z 15006KT 26/17 A3005 RMK A01 T02570168  RH  058%=      5-min Rain = 0
KST3 050346Z 15006KT 26/17 A3006 RMK A01 T02570167  RH  058%=      5-min Rain = 0
KST3 050347Z 16006KT 26/17 A3006 RMK A01 T02560167  RH  058%=      5-min Rain = 0
KST3 050348Z 15006KT 26/17 A3006 RMK A01 T02560167  RH  058%=      5-min Rain = 0
KST3 050349Z 15006KT 26/17 A3006 RMK A01 T02560167  RH  058%=      5-min Rain = 0
KST3 050350Z 16006KT 26/17 A3006 RMK A01 T02560167  RH  058%=      5-min Rain = 0
KST3 050351Z 16005KT 26/17 A3006 RMK A01 T02560166  RH  058%=      5-min Rain = 0
KST3 050352Z 15006KT 26/17 A3006 RMK A01 T02560166  RH  058%=      5-min Rain = 0
KST3 050353Z 16006KT 26/17 A3006 RMK A01 T02560167  RH  058%=      5-min Rain = 0
KST3 050354Z 16006KT 26/17 A3006 RMK A01 T02560166  RH  058%=      5-min Rain = 0
KST3 050355Z 15006KT 26/17 A3006 RMK A01 T02560167  RH  058%=      5-min Rain = 0
KST3 050356Z 16007KT 26/17 A3006 RMK A01 T02550167  RH  058%=      5-min Rain = 0
KST3 050357Z 15007KT 26/17 A3006 RMK A01 T02550166  RH  058%=      5-min Rain = 0
KST3 050358Z 15007KT 26/17 A3006 RMK A01 T02550167  RH  058%=      5-min Rain = 0
KST3 050359Z 15007KT 26/17 A3006 RMK A01 T02550166  RH  058%=      5-min Rain = 0
KST3 050400Z 15007KT 26/17 A3006 RMK A01 T02550166  RH  058%=      5-min Rain = 0
KST3 050401Z 15007KT 25/17 A3006 RMK A01 T02540166  RH  058%=      5-min Rain = 0
KST3 050402Z 15007KT 25/17 A3006 RMK A01 T02540166  RH  058%=      5-min Rain = 0
KST3 050403Z 14006KT 26/17 A3006 RMK A01 T02550166  RH  058%=      5-min Rain = 0
KST3 050404Z 15007KT 26/17 A3006 RMK A01 T02550166  RH  058%=      5-min Rain = 0
KST3 050405Z 15007KT 26/17 A3006 RMK A01 T02550165  RH  058%=      5-min Rain = 0
KST3 050406Z 15007KT 26/17 A3006 RMK A01 T02550165  RH  057%=      5-min Rain = 0
KST3 050407Z 15007KT 26/17 A3006 RMK A01 T02560165  RH  057%=      5-min Rain = 0
KST3 050408Z 15006KT 26/17 A3006 RMK A01 T02560165  RH  057%=      5-min Rain = 0
KST3 050409Z 14007KT 26/17 A3006 RMK A01 T02560165  RH  057%=      5-min Rain = 0
KST3 050410Z 15006KT 26/17 A3006 RMK A01 T02560165  RH  057%=      5-min Rain = 0
KST3 050411Z 15007KT 26/17 A3006 RMK A01 T02550165  RH  057%=      5-min Rain = 0
KST3 050412Z 15006KT 26/16 A3006 RMK A01 T02550164  RH  057%=      5-min Rain = 0
KST3 050413Z 15007KT 26/16 A3006 RMK A01 T02550164  RH  057%=      5-min Rain = 0
KST3 050414Z 15007KT 26/16 A3006 RMK A01 T02550164  RH  057%=      5-min Rain = 0
KST3 050415Z 15005KT 26/16 A3006 RMK A01 T02550164  RH  057%=      5-min Rain = 0
KST3 050416Z 15005KT 26/17 A3006 RMK A01 T02550165  RH  057%=      5-min Rain = 0
KST3 050417Z 14005KT 26/16 A3006 RMK A01 T02550164  RH  057%=      5-min Rain = 0
KST3 050418Z 14007KT 26/16 A3006 RMK A01 T02550164  RH  057%=      5-min Rain = 0
KST3 050419Z 14005KT 26/16 A3006 RMK A01 T02550164  RH  057%=      5-min Rain = 0
KST3 050420Z 14005KT 25/16 A3006 RMK A01 T02540164  RH  057%=      5-min Rain = 0
KST3 050421Z 15005KT 25/16 A3006 RMK A01 T02540163  RH  057%=      5-min Rain = 0
KST3 050422Z 15006KT 25/16 A3006 RMK A01 T02540164  RH  057%=      5-min Rain = 0
KST3 050423Z 15005KT 25/16 A3006 RMK A01 T02540164  RH  057%=      5-min Rain = 0
KST3 050424Z 15005KT 25/16 A3007 RMK A01 T02540164  RH  057%=      5-min Rain = 0
KST3 050425Z 16005KT 25/16 A3007 RMK A01 T02530163  RH  058%=      5-min Rain = 0
KST3 050426Z 16005KT 25/16 A3007 RMK A01 T02530163  RH  058%=      5-min Rain = 0
KST3 050427Z 16006KT 25/16 A3007 RMK A01 T02520164  RH  058%=      5-min Rain = 0
KST3 050428Z 16006KT 25/16 A3007 RMK A01 T02510164  RH  058%=      5-min Rain = 0
KST3 050429Z 16006KT 25/16 A3007 RMK A01 T02520164  RH  058%=      5-min Rain = 0
KST3 050430Z 16006KT 25/16 A3007 RMK A01 T02520164  RH  058%=      5-min Rain = 0
KST3 050431Z 16006KT 25/16 A3007 RMK A01 T02520164  RH  058%=      5-min Rain = 0
KST3 050432Z 16006KT 25/16 A3007 RMK A01 T02520163  RH  058%=      5-min Rain = 0
KST3 050433Z 16006KT 25/16 A3007 RMK A01 T02520164  RH  058%=      5-min Rain = 0
KST3 050434Z 16005KT 25/16 A3007 RMK A01 T02520164  RH  058%=      5-min Rain = 0
KST3 050435Z 16005KT 25/16 A3007 RMK A01 T02520164  RH  058%=      5-min Rain = 0
KST3 050436Z 16006KT 25/16 A3007 RMK A01 T02520164  RH  058%=      5-min Rain = 0
KST3 050437Z 16005KT 25/16 A3007 RMK A01 T02510164  RH  058%=      5-min Rain = 0
KST3 050438Z 17005KT 25/16 A3007 RMK A01 T02510164  RH  058%=      5-min Rain = 0
KST3 050439Z 17005KT 25/16 A3007 RMK A01 T02510164  RH  058%=      5-min Rain = 0
KST3 050440Z 17005KT 25/16 A3007 RMK A01 T02500164  RH  059%=      5-min Rain = 0
KST3 050441Z 17005KT 25/16 A3007 RMK A01 T02500164  RH  059%=      5-min Rain = 0
KST3 050442Z 17006KT 25/16 A3007 RMK A01 T02500163  RH  058%=      5-min Rain = 0
KST3 050443Z 17005KT 25/16 A3007 RMK A01 T02510163  RH  058%=      5-min Rain = 0
KST3 050444Z 17005KT 25/16 A3007 RMK A01 T02520163  RH  058%=      5-min Rain = 0
KST3 050445Z 17007KT 25/16 A3007 RMK A01 T02520163  RH  058%=      5-min Rain = 0
KST3 050446Z 17007KT 25/16 A3007 RMK A01 T02530163  RH  058%=      5-min Rain = 0
KST3 050447Z 17007KT 25/16 A3007 RMK A01 T02530164  RH  058%=      5-min Rain = 0
KST3 050448Z 17009KT 25/16 A3007 RMK A01 T02530163  RH  057%=      5-min Rain = 0
KST3 050449Z 18009KT 25/16 A3007 RMK A01 T02540164  RH  057%=      5-min Rain = 0
KST3 050450Z 18008KT 26/16 A3007 RMK A01 T02550164  RH  057%=      5-min Rain = 0
KST3 050451Z 18007KT 26/16 A3007 RMK A01 T02550164  RH  057%=      5-min Rain = 0
KST3 050452Z 18008KT 26/16 A3007 RMK A01 T02550164  RH  057%=      5-min Rain = 0
KST3 050453Z 18008KT 26/16 A3007 RMK A01 T02550163  RH  057%=      5-min Rain = 0
KST3 050454Z 18008KT 25/16 A3007 RMK A01 T02540163  RH  057%=      5-min Rain = 0
KST3 050455Z 18008KT 25/16 A3007 RMK A01 T02540163  RH  057%=      5-min Rain = 0
KST3 050456Z 18007KT 25/16 A3007 RMK A01 T02540164  RH  057%=      5-min Rain = 0
KST3 050457Z 18008KT 25/16 A3007 RMK A01 T02540164  RH  057%=      5-min Rain = 0
KST3 050458Z 18006KT 25/16 A3007 RMK A01 T02540164  RH  057%=      5-min Rain = 0
KST3 050459Z 18006KT 25/16 A3007 RMK A01 T02540164  RH  057%=      5-min Rain = 0

Page generated in 0.0716 seconds.